<?xml version="1.0" encoding="UTF-8" standalone="no" ?>
<gpx xmlns="http://www.topografix.com/GPX/1/1" xmlns:xsi="http://www.w3.org/2001/XMLSchema-instance" xsi:schemaLocation="http://www.topografix.com/GPX/1/1 http://www.topografix.com/GPX/1/1/gpx.xsd" version="1.1" creator="VisuGPX - https://www.visugpx.com">
  <metadata>
    <name>RANDO ST ARCONS LANGEAC 13 KM</name>
    <desc><![CDATA[RANDO ST ARCONS LANGEAC 13 KM.DEPART ARRIVEE PARKING EN BAS DE ST ARCONS.BORD DE L'ALLIER.VON.JARISSON.BONNEVAL]]></desc>
  </metadata>
  <trk>
    <name><![CDATA[16-JAN-21 15:04:04]]></name>
    <extensions>
      <line xmlns="http://www.topografix.com/GPX/gpx_style/0/2">
        <color>0000FF</color>
        <width>4</width>
      </line>
    </extensions>
    <trkseg>
      <trkpt lat="45.06929" lon="3.54835">
        <ele>526.94</ele>
        <time>2021-01-16T09:26:19Z</time>
      </trkpt>
      <trkpt lat="45.06928" lon="3.54835">
        <ele>527.42</ele>
        <time>2021-01-16T09:26:33Z</time>
      </trkpt>
      <trkpt lat="45.06927" lon="3.54831">
        <ele>528.38</ele>
        <time>2021-01-16T09:27:01Z</time>
      </trkpt>
      <trkpt lat="45.06927" lon="3.54832">
        <ele>527.42</ele>
        <time>2021-01-16T09:27:25Z</time>
      </trkpt>
      <trkpt lat="45.06922" lon="3.54829">
        <ele>526.94</ele>
        <time>2021-01-16T09:27:33Z</time>
      </trkpt>
      <trkpt lat="45.06918" lon="3.54824">
        <ele>527.42</ele>
        <time>2021-01-16T09:27:38Z</time>
      </trkpt>
      <trkpt lat="45.06924" lon="3.54807">
        <ele>526.94</ele>
        <time>2021-01-16T09:27:51Z</time>
      </trkpt>
      <trkpt lat="45.06935" lon="3.54798">
        <ele>521.65</ele>
        <time>2021-01-16T09:28:03Z</time>
      </trkpt>
      <trkpt lat="45.06942" lon="3.54791">
        <ele>520.69</ele>
        <time>2021-01-16T09:28:12Z</time>
      </trkpt>
      <trkpt lat="45.06961" lon="3.54776">
        <ele>519.25</ele>
        <time>2021-01-16T09:28:28Z</time>
      </trkpt>
      <trkpt lat="45.06975" lon="3.5476">
        <ele>516.85</ele>
        <time>2021-01-16T09:28:43Z</time>
      </trkpt>
      <trkpt lat="45.06976" lon="3.54759">
        <ele>516.85</ele>
        <time>2021-01-16T09:28:44Z</time>
      </trkpt>
      <trkpt lat="45.06963" lon="3.54732">
        <ele>516.85</ele>
        <time>2021-01-16T09:29:02Z</time>
      </trkpt>
      <trkpt lat="45.06967" lon="3.54712">
        <ele>513</ele>
        <time>2021-01-16T09:29:15Z</time>
      </trkpt>
      <trkpt lat="45.06967" lon="3.5471">
        <ele>513</ele>
        <time>2021-01-16T09:29:16Z</time>
      </trkpt>
      <trkpt lat="45.06981" lon="3.54695">
        <ele>508.67</ele>
        <time>2021-01-16T09:29:33Z</time>
      </trkpt>
      <trkpt lat="45.06988" lon="3.54685">
        <ele>502.43</ele>
        <time>2021-01-16T09:29:43Z</time>
      </trkpt>
      <trkpt lat="45.06995" lon="3.54677">
        <ele>499.54</ele>
        <time>2021-01-16T09:29:52Z</time>
      </trkpt>
      <trkpt lat="45.07006" lon="3.54659">
        <ele>500.5</ele>
        <time>2021-01-16T09:30:04Z</time>
      </trkpt>
      <trkpt lat="45.07023" lon="3.54633">
        <ele>511.08</ele>
        <time>2021-01-16T09:30:21Z</time>
      </trkpt>
      <trkpt lat="45.07036" lon="3.54614">
        <ele>511.08</ele>
        <time>2021-01-16T09:30:37Z</time>
      </trkpt>
      <trkpt lat="45.07051" lon="3.54597">
        <ele>506.27</ele>
        <time>2021-01-16T09:30:53Z</time>
      </trkpt>
      <trkpt lat="45.07065" lon="3.54581">
        <ele>506.27</ele>
        <time>2021-01-16T09:31:07Z</time>
      </trkpt>
      <trkpt lat="45.07077" lon="3.54569">
        <ele>506.27</ele>
        <time>2021-01-16T09:31:18Z</time>
      </trkpt>
      <trkpt lat="45.07082" lon="3.54563">
        <ele>509.64</ele>
        <time>2021-01-16T09:31:32Z</time>
      </trkpt>
      <trkpt lat="45.07089" lon="3.54556">
        <ele>510.6</ele>
        <time>2021-01-16T09:31:45Z</time>
      </trkpt>
      <trkpt lat="45.07096" lon="3.54549">
        <ele>511.56</ele>
        <time>2021-01-16T09:32:00Z</time>
      </trkpt>
      <trkpt lat="45.07101" lon="3.54541">
        <ele>512.04</ele>
        <time>2021-01-16T09:32:20Z</time>
      </trkpt>
      <trkpt lat="45.07102" lon="3.54539">
        <ele>512.04</ele>
        <time>2021-01-16T09:32:32Z</time>
      </trkpt>
      <trkpt lat="45.07104" lon="3.54536">
        <ele>512.04</ele>
        <time>2021-01-16T09:32:38Z</time>
      </trkpt>
      <trkpt lat="45.07108" lon="3.54533">
        <ele>511.08</ele>
        <time>2021-01-16T09:32:42Z</time>
      </trkpt>
      <trkpt lat="45.07115" lon="3.54521">
        <ele>510.6</ele>
        <time>2021-01-16T09:32:56Z</time>
      </trkpt>
      <trkpt lat="45.07121" lon="3.54512">
        <ele>512.04</ele>
        <time>2021-01-16T09:33:08Z</time>
      </trkpt>
      <trkpt lat="45.07123" lon="3.54511">
        <ele>512.04</ele>
        <time>2021-01-16T09:33:10Z</time>
      </trkpt>
      <trkpt lat="45.07131" lon="3.54507">
        <ele>512.52</ele>
        <time>2021-01-16T09:33:22Z</time>
      </trkpt>
      <trkpt lat="45.07139" lon="3.54497">
        <ele>512.52</ele>
        <time>2021-01-16T09:33:34Z</time>
      </trkpt>
      <trkpt lat="45.07143" lon="3.54493">
        <ele>513</ele>
        <time>2021-01-16T09:33:38Z</time>
      </trkpt>
      <trkpt lat="45.07147" lon="3.54489">
        <ele>512.52</ele>
        <time>2021-01-16T09:33:43Z</time>
      </trkpt>
      <trkpt lat="45.07149" lon="3.54484">
        <ele>512.52</ele>
        <time>2021-01-16T09:33:46Z</time>
      </trkpt>
      <trkpt lat="45.07156" lon="3.54476">
        <ele>510.6</ele>
        <time>2021-01-16T09:34:00Z</time>
      </trkpt>
      <trkpt lat="45.07163" lon="3.5447">
        <ele>510.12</ele>
        <time>2021-01-16T09:34:07Z</time>
      </trkpt>
      <trkpt lat="45.0717" lon="3.54466">
        <ele>508.67</ele>
        <time>2021-01-16T09:34:14Z</time>
      </trkpt>
      <trkpt lat="45.07185" lon="3.54452">
        <ele>502.43</ele>
        <time>2021-01-16T09:34:30Z</time>
      </trkpt>
      <trkpt lat="45.07189" lon="3.54449">
        <ele>501.95</ele>
        <time>2021-01-16T09:34:33Z</time>
      </trkpt>
      <trkpt lat="45.07208" lon="3.54446">
        <ele>500.98</ele>
        <time>2021-01-16T09:34:50Z</time>
      </trkpt>
      <trkpt lat="45.07212" lon="3.54449">
        <ele>500.5</ele>
        <time>2021-01-16T09:34:55Z</time>
      </trkpt>
      <trkpt lat="45.07223" lon="3.54443">
        <ele>500.98</ele>
        <time>2021-01-16T09:35:08Z</time>
      </trkpt>
      <trkpt lat="45.0724" lon="3.54436">
        <ele>507.71</ele>
        <time>2021-01-16T09:35:20Z</time>
      </trkpt>
      <trkpt lat="45.0725" lon="3.54423">
        <ele>513.96</ele>
        <time>2021-01-16T09:35:34Z</time>
      </trkpt>
      <trkpt lat="45.07259" lon="3.54417">
        <ele>514.44</ele>
        <time>2021-01-16T09:35:43Z</time>
      </trkpt>
      <trkpt lat="45.07264" lon="3.54411">
        <ele>515.4</ele>
        <time>2021-01-16T09:35:48Z</time>
      </trkpt>
      <trkpt lat="45.0727" lon="3.54401">
        <ele>516.85</ele>
        <time>2021-01-16T09:35:54Z</time>
      </trkpt>
      <trkpt lat="45.07275" lon="3.54394">
        <ele>519.25</ele>
        <time>2021-01-16T09:36:01Z</time>
      </trkpt>
      <trkpt lat="45.0728" lon="3.5437">
        <ele>525.02</ele>
        <time>2021-01-16T09:36:12Z</time>
      </trkpt>
      <trkpt lat="45.07285" lon="3.54351">
        <ele>526.46</ele>
        <time>2021-01-16T09:36:23Z</time>
      </trkpt>
      <trkpt lat="45.07287" lon="3.54347">
        <ele>525.5</ele>
        <time>2021-01-16T09:36:27Z</time>
      </trkpt>
      <trkpt lat="45.07296" lon="3.54326">
        <ele>525.5</ele>
        <time>2021-01-16T09:36:40Z</time>
      </trkpt>
      <trkpt lat="45.07299" lon="3.5432">
        <ele>525.5</ele>
        <time>2021-01-16T09:37:00Z</time>
      </trkpt>
      <trkpt lat="45.07308" lon="3.54302">
        <ele>524.54</ele>
        <time>2021-01-16T09:37:12Z</time>
      </trkpt>
      <trkpt lat="45.07313" lon="3.54293">
        <ele>524.06</ele>
        <time>2021-01-16T09:37:17Z</time>
      </trkpt>
      <trkpt lat="45.0732" lon="3.54284">
        <ele>525.02</ele>
        <time>2021-01-16T09:37:25Z</time>
      </trkpt>
      <trkpt lat="45.07332" lon="3.5427">
        <ele>524.06</ele>
        <time>2021-01-16T09:37:40Z</time>
      </trkpt>
      <trkpt lat="45.07342" lon="3.54259">
        <ele>522.61</ele>
        <time>2021-01-16T09:37:52Z</time>
      </trkpt>
      <trkpt lat="45.07346" lon="3.54246">
        <ele>523.58</ele>
        <time>2021-01-16T09:38:05Z</time>
      </trkpt>
      <trkpt lat="45.07346" lon="3.5424">
        <ele>525.98</ele>
        <time>2021-01-16T09:38:21Z</time>
      </trkpt>
      <trkpt lat="45.07346" lon="3.54238">
        <ele>527.42</ele>
        <time>2021-01-16T09:38:41Z</time>
      </trkpt>
      <trkpt lat="45.07347" lon="3.54237">
        <ele>526.94</ele>
        <time>2021-01-16T09:39:06Z</time>
      </trkpt>
      <trkpt lat="45.07347" lon="3.54233">
        <ele>526.94</ele>
        <time>2021-01-16T09:39:36Z</time>
      </trkpt>
      <trkpt lat="45.07347" lon="3.54232">
        <ele>526.94</ele>
        <time>2021-01-16T09:39:54Z</time>
      </trkpt>
      <trkpt lat="45.07353" lon="3.54223">
        <ele>527.42</ele>
        <time>2021-01-16T09:40:17Z</time>
      </trkpt>
      <trkpt lat="45.0736" lon="3.54215">
        <ele>528.86</ele>
        <time>2021-01-16T09:40:28Z</time>
      </trkpt>
      <trkpt lat="45.07365" lon="3.5421">
        <ele>528.86</ele>
        <time>2021-01-16T09:40:38Z</time>
      </trkpt>
      <trkpt lat="45.07372" lon="3.54196">
        <ele>528.38</ele>
        <time>2021-01-16T09:40:49Z</time>
      </trkpt>
      <trkpt lat="45.07367" lon="3.54174">
        <ele>529.34</ele>
        <time>2021-01-16T09:41:01Z</time>
      </trkpt>
      <trkpt lat="45.07365" lon="3.54169">
        <ele>530.3</ele>
        <time>2021-01-16T09:41:15Z</time>
      </trkpt>
      <trkpt lat="45.07364" lon="3.54165">
        <ele>531.75</ele>
        <time>2021-01-16T09:41:29Z</time>
      </trkpt>
      <trkpt lat="45.07365" lon="3.54163">
        <ele>531.75</ele>
        <time>2021-01-16T09:41:46Z</time>
      </trkpt>
      <trkpt lat="45.07364" lon="3.54156">
        <ele>532.23</ele>
        <time>2021-01-16T09:41:58Z</time>
      </trkpt>
      <trkpt lat="45.07361" lon="3.54131">
        <ele>533.67</ele>
        <time>2021-01-16T09:42:11Z</time>
      </trkpt>
      <trkpt lat="45.07365" lon="3.54094">
        <ele>534.63</ele>
        <time>2021-01-16T09:42:28Z</time>
      </trkpt>
      <trkpt lat="45.07376" lon="3.54065">
        <ele>531.27</ele>
        <time>2021-01-16T09:42:43Z</time>
      </trkpt>
      <trkpt lat="45.07381" lon="3.54061">
        <ele>531.27</ele>
        <time>2021-01-16T09:42:49Z</time>
      </trkpt>
      <trkpt lat="45.07383" lon="3.54052">
        <ele>530.3</ele>
        <time>2021-01-16T09:42:54Z</time>
      </trkpt>
      <trkpt lat="45.0739" lon="3.54048">
        <ele>530.3</ele>
        <time>2021-01-16T09:42:59Z</time>
      </trkpt>
      <trkpt lat="45.07401" lon="3.54033">
        <ele>527.42</ele>
        <time>2021-01-16T09:43:11Z</time>
      </trkpt>
      <trkpt lat="45.07403" lon="3.54022">
        <ele>524.06</ele>
        <time>2021-01-16T09:43:24Z</time>
      </trkpt>
      <trkpt lat="45.07403" lon="3.54011">
        <ele>518.77</ele>
        <time>2021-01-16T09:43:37Z</time>
      </trkpt>
      <trkpt lat="45.07405" lon="3.54003">
        <ele>514.92</ele>
        <time>2021-01-16T09:43:45Z</time>
      </trkpt>
      <trkpt lat="45.07413" lon="3.53982">
        <ele>510.6</ele>
        <time>2021-01-16T09:43:59Z</time>
      </trkpt>
      <trkpt lat="45.07417" lon="3.53968">
        <ele>508.19</ele>
        <time>2021-01-16T09:44:13Z</time>
      </trkpt>
      <trkpt lat="45.07424" lon="3.53959">
        <ele>505.79</ele>
        <time>2021-01-16T09:44:26Z</time>
      </trkpt>
      <trkpt lat="45.07428" lon="3.53945">
        <ele>505.79</ele>
        <time>2021-01-16T09:44:38Z</time>
      </trkpt>
      <trkpt lat="45.07437" lon="3.53928">
        <ele>505.31</ele>
        <time>2021-01-16T09:44:51Z</time>
      </trkpt>
      <trkpt lat="45.07447" lon="3.53906">
        <ele>506.75</ele>
        <time>2021-01-16T09:45:04Z</time>
      </trkpt>
      <trkpt lat="45.07454" lon="3.53892">
        <ele>505.31</ele>
        <time>2021-01-16T09:45:15Z</time>
      </trkpt>
      <trkpt lat="45.07461" lon="3.53874">
        <ele>504.83</ele>
        <time>2021-01-16T09:45:30Z</time>
      </trkpt>
      <trkpt lat="45.07464" lon="3.5387">
        <ele>504.35</ele>
        <time>2021-01-16T09:45:33Z</time>
      </trkpt>
      <trkpt lat="45.07471" lon="3.53859">
        <ele>503.87</ele>
        <time>2021-01-16T09:45:41Z</time>
      </trkpt>
      <trkpt lat="45.07473" lon="3.53856">
        <ele>503.87</ele>
        <time>2021-01-16T09:45:43Z</time>
      </trkpt>
      <trkpt lat="45.07483" lon="3.53841">
        <ele>502.43</ele>
        <time>2021-01-16T09:45:53Z</time>
      </trkpt>
      <trkpt lat="45.07488" lon="3.53835">
        <ele>500.98</ele>
        <time>2021-01-16T09:45:58Z</time>
      </trkpt>
      <trkpt lat="45.07496" lon="3.53807">
        <ele>499.06</ele>
        <time>2021-01-16T09:46:13Z</time>
      </trkpt>
      <trkpt lat="45.07507" lon="3.53789">
        <ele>501.46</ele>
        <time>2021-01-16T09:46:27Z</time>
      </trkpt>
      <trkpt lat="45.07512" lon="3.53771">
        <ele>503.39</ele>
        <time>2021-01-16T09:46:37Z</time>
      </trkpt>
      <trkpt lat="45.07515" lon="3.53764">
        <ele>503.39</ele>
        <time>2021-01-16T09:46:41Z</time>
      </trkpt>
      <trkpt lat="45.07528" lon="3.53745">
        <ele>503.87</ele>
        <time>2021-01-16T09:46:55Z</time>
      </trkpt>
      <trkpt lat="45.07541" lon="3.53727">
        <ele>505.31</ele>
        <time>2021-01-16T09:47:09Z</time>
      </trkpt>
      <trkpt lat="45.07555" lon="3.53706">
        <ele>505.79</ele>
        <time>2021-01-16T09:47:26Z</time>
      </trkpt>
      <trkpt lat="45.07564" lon="3.53698">
        <ele>506.75</ele>
        <time>2021-01-16T09:47:42Z</time>
      </trkpt>
      <trkpt lat="45.07574" lon="3.53688">
        <ele>506.75</ele>
        <time>2021-01-16T09:47:54Z</time>
      </trkpt>
      <trkpt lat="45.07587" lon="3.53677">
        <ele>505.79</ele>
        <time>2021-01-16T09:48:04Z</time>
      </trkpt>
      <trkpt lat="45.07603" lon="3.53663">
        <ele>506.27</ele>
        <time>2021-01-16T09:48:17Z</time>
      </trkpt>
      <trkpt lat="45.07613" lon="3.53656">
        <ele>505.31</ele>
        <time>2021-01-16T09:48:29Z</time>
      </trkpt>
      <trkpt lat="45.07614" lon="3.53655">
        <ele>505.31</ele>
        <time>2021-01-16T09:48:30Z</time>
      </trkpt>
      <trkpt lat="45.07628" lon="3.53647">
        <ele>504.83</ele>
        <time>2021-01-16T09:48:42Z</time>
      </trkpt>
      <trkpt lat="45.07649" lon="3.53632">
        <ele>505.79</ele>
        <time>2021-01-16T09:48:59Z</time>
      </trkpt>
      <trkpt lat="45.07662" lon="3.53617">
        <ele>506.75</ele>
        <time>2021-01-16T09:49:12Z</time>
      </trkpt>
      <trkpt lat="45.07672" lon="3.53598">
        <ele>509.16</ele>
        <time>2021-01-16T09:49:25Z</time>
      </trkpt>
      <trkpt lat="45.07676" lon="3.53592">
        <ele>509.64</ele>
        <time>2021-01-16T09:49:30Z</time>
      </trkpt>
      <trkpt lat="45.07678" lon="3.53581">
        <ele>511.56</ele>
        <time>2021-01-16T09:49:43Z</time>
      </trkpt>
      <trkpt lat="45.07678" lon="3.53579">
        <ele>510.6</ele>
        <time>2021-01-16T09:49:52Z</time>
      </trkpt>
      <trkpt lat="45.07683" lon="3.53583">
        <ele>511.08</ele>
        <time>2021-01-16T09:49:57Z</time>
      </trkpt>
      <trkpt lat="45.07689" lon="3.53582">
        <ele>511.56</ele>
        <time>2021-01-16T09:50:04Z</time>
      </trkpt>
      <trkpt lat="45.07694" lon="3.53585">
        <ele>511.08</ele>
        <time>2021-01-16T09:50:08Z</time>
      </trkpt>
      <trkpt lat="45.07716" lon="3.53593">
        <ele>510.12</ele>
        <time>2021-01-16T09:50:23Z</time>
      </trkpt>
      <trkpt lat="45.07736" lon="3.53599">
        <ele>511.08</ele>
        <time>2021-01-16T09:50:39Z</time>
      </trkpt>
      <trkpt lat="45.07756" lon="3.53603">
        <ele>511.56</ele>
        <time>2021-01-16T09:50:54Z</time>
      </trkpt>
      <trkpt lat="45.07776" lon="3.53606">
        <ele>511.56</ele>
        <time>2021-01-16T09:51:10Z</time>
      </trkpt>
      <trkpt lat="45.07787" lon="3.53606">
        <ele>511.08</ele>
        <time>2021-01-16T09:51:19Z</time>
      </trkpt>
      <trkpt lat="45.07791" lon="3.53604">
        <ele>511.08</ele>
        <time>2021-01-16T09:51:23Z</time>
      </trkpt>
      <trkpt lat="45.07811" lon="3.53608">
        <ele>510.6</ele>
        <time>2021-01-16T09:51:38Z</time>
      </trkpt>
      <trkpt lat="45.07831" lon="3.53609">
        <ele>510.6</ele>
        <time>2021-01-16T09:51:52Z</time>
      </trkpt>
      <trkpt lat="45.07851" lon="3.53606">
        <ele>508.67</ele>
        <time>2021-01-16T09:52:07Z</time>
      </trkpt>
      <trkpt lat="45.07866" lon="3.53604">
        <ele>507.71</ele>
        <time>2021-01-16T09:52:21Z</time>
      </trkpt>
      <trkpt lat="45.07888" lon="3.536">
        <ele>507.71</ele>
        <time>2021-01-16T09:52:38Z</time>
      </trkpt>
      <trkpt lat="45.07889" lon="3.53599">
        <ele>507.71</ele>
        <time>2021-01-16T09:52:39Z</time>
      </trkpt>
      <trkpt lat="45.07909" lon="3.536">
        <ele>509.16</ele>
        <time>2021-01-16T09:52:54Z</time>
      </trkpt>
      <trkpt lat="45.07924" lon="3.53606">
        <ele>508.67</ele>
        <time>2021-01-16T09:53:06Z</time>
      </trkpt>
      <trkpt lat="45.07945" lon="3.53611">
        <ele>507.23</ele>
        <time>2021-01-16T09:53:21Z</time>
      </trkpt>
      <trkpt lat="45.07967" lon="3.53615">
        <ele>506.75</ele>
        <time>2021-01-16T09:53:38Z</time>
      </trkpt>
      <trkpt lat="45.07977" lon="3.53615">
        <ele>507.23</ele>
        <time>2021-01-16T09:53:46Z</time>
      </trkpt>
      <trkpt lat="45.07995" lon="3.53615">
        <ele>506.75</ele>
        <time>2021-01-16T09:54:01Z</time>
      </trkpt>
      <trkpt lat="45.08013" lon="3.53618">
        <ele>506.27</ele>
        <time>2021-01-16T09:54:15Z</time>
      </trkpt>
      <trkpt lat="45.08036" lon="3.5363">
        <ele>504.83</ele>
        <time>2021-01-16T09:54:31Z</time>
      </trkpt>
      <trkpt lat="45.08056" lon="3.53642">
        <ele>500.98</ele>
        <time>2021-01-16T09:54:46Z</time>
      </trkpt>
      <trkpt lat="45.08107" lon="3.53623">
        <ele>511.8</ele>
      </trkpt>
      <trkpt lat="45.08148" lon="3.53616">
        <ele>511.3</ele>
      </trkpt>
      <trkpt lat="45.08191" lon="3.53625">
        <ele>510.1</ele>
      </trkpt>
      <trkpt lat="45.08245" lon="3.53638">
        <ele>508.2</ele>
      </trkpt>
      <trkpt lat="45.08353" lon="3.53589">
        <ele>508.6</ele>
      </trkpt>
      <trkpt lat="45.08487" lon="3.53541">
        <ele>507.9</ele>
      </trkpt>
      <trkpt lat="45.08667" lon="3.53464">
        <ele>505.7</ele>
      </trkpt>
      <trkpt lat="45.08747" lon="3.53453">
        <ele>503.9</ele>
      </trkpt>
      <trkpt lat="45.08757" lon="3.53445">
        <ele>500.5</ele>
        <time>2021-01-16T10:15:43Z</time>
      </trkpt>
      <trkpt lat="45.08778" lon="3.53426">
        <ele>502.43</ele>
        <time>2021-01-16T10:16:01Z</time>
      </trkpt>
      <trkpt lat="45.08795" lon="3.5341">
        <ele>501.46</ele>
        <time>2021-01-16T10:16:18Z</time>
      </trkpt>
      <trkpt lat="45.08817" lon="3.53394">
        <ele>500.02</ele>
        <time>2021-01-16T10:16:33Z</time>
      </trkpt>
      <trkpt lat="45.08837" lon="3.53381">
        <ele>498.58</ele>
        <time>2021-01-16T10:16:47Z</time>
      </trkpt>
      <trkpt lat="45.08854" lon="3.53369">
        <ele>497.62</ele>
        <time>2021-01-16T10:17:00Z</time>
      </trkpt>
      <trkpt lat="45.08873" lon="3.53357">
        <ele>497.62</ele>
        <time>2021-01-16T10:17:15Z</time>
      </trkpt>
      <trkpt lat="45.08874" lon="3.53355">
        <ele>497.62</ele>
        <time>2021-01-16T10:17:16Z</time>
      </trkpt>
      <trkpt lat="45.08894" lon="3.53344">
        <ele>498.1</ele>
        <time>2021-01-16T10:17:32Z</time>
      </trkpt>
      <trkpt lat="45.08912" lon="3.53328">
        <ele>502.43</ele>
        <time>2021-01-16T10:17:49Z</time>
      </trkpt>
      <trkpt lat="45.08925" lon="3.53316">
        <ele>500.98</ele>
        <time>2021-01-16T10:18:01Z</time>
      </trkpt>
      <trkpt lat="45.08938" lon="3.53309">
        <ele>500.98</ele>
        <time>2021-01-16T10:18:12Z</time>
      </trkpt>
      <trkpt lat="45.0895" lon="3.53298">
        <ele>500.98</ele>
        <time>2021-01-16T10:18:22Z</time>
      </trkpt>
      <trkpt lat="45.0896" lon="3.53296">
        <ele>500.98</ele>
        <time>2021-01-16T10:18:34Z</time>
      </trkpt>
      <trkpt lat="45.08961" lon="3.53297">
        <ele>500.98</ele>
        <time>2021-01-16T10:18:36Z</time>
      </trkpt>
      <trkpt lat="45.0897" lon="3.53294">
        <ele>501.46</ele>
        <time>2021-01-16T10:18:42Z</time>
      </trkpt>
      <trkpt lat="45.0899" lon="3.53285">
        <ele>501.95</ele>
        <time>2021-01-16T10:18:57Z</time>
      </trkpt>
      <trkpt lat="45.09013" lon="3.53272">
        <ele>502.91</ele>
        <time>2021-01-16T10:19:14Z</time>
      </trkpt>
      <trkpt lat="45.09022" lon="3.53264">
        <ele>500.5</ele>
        <time>2021-01-16T10:19:28Z</time>
      </trkpt>
      <trkpt lat="45.09043" lon="3.53246">
        <ele>501.46</ele>
        <time>2021-01-16T10:19:45Z</time>
      </trkpt>
      <trkpt lat="45.09061" lon="3.5323">
        <ele>503.87</ele>
        <time>2021-01-16T10:19:59Z</time>
      </trkpt>
      <trkpt lat="45.0908" lon="3.53219">
        <ele>502.91</ele>
        <time>2021-01-16T10:20:14Z</time>
      </trkpt>
      <trkpt lat="45.09096" lon="3.53211">
        <ele>503.87</ele>
        <time>2021-01-16T10:20:28Z</time>
      </trkpt>
      <trkpt lat="45.09097" lon="3.5321">
        <ele>503.87</ele>
        <time>2021-01-16T10:20:29Z</time>
      </trkpt>
      <trkpt lat="45.09118" lon="3.532">
        <ele>504.83</ele>
        <time>2021-01-16T10:20:45Z</time>
      </trkpt>
      <trkpt lat="45.09142" lon="3.53184">
        <ele>503.39</ele>
        <time>2021-01-16T10:21:05Z</time>
      </trkpt>
      <trkpt lat="45.09145" lon="3.5318">
        <ele>502.91</ele>
        <time>2021-01-16T10:21:09Z</time>
      </trkpt>
      <trkpt lat="45.09163" lon="3.53158">
        <ele>500.98</ele>
        <time>2021-01-16T10:21:28Z</time>
      </trkpt>
      <trkpt lat="45.0918" lon="3.53129">
        <ele>495.22</ele>
        <time>2021-01-16T10:21:53Z</time>
      </trkpt>
      <trkpt lat="45.092" lon="3.53101">
        <ele>491.37</ele>
        <time>2021-01-16T10:22:16Z</time>
      </trkpt>
      <trkpt lat="45.09216" lon="3.5308">
        <ele>500.5</ele>
        <time>2021-01-16T10:22:33Z</time>
      </trkpt>
      <trkpt lat="45.09227" lon="3.5307">
        <ele>503.87</ele>
        <time>2021-01-16T10:22:52Z</time>
      </trkpt>
      <trkpt lat="45.09243" lon="3.53045">
        <ele>507.23</ele>
        <time>2021-01-16T10:23:11Z</time>
      </trkpt>
      <trkpt lat="45.09256" lon="3.53025">
        <ele>512.04</ele>
        <time>2021-01-16T10:23:29Z</time>
      </trkpt>
      <trkpt lat="45.09264" lon="3.53014">
        <ele>516.37</ele>
        <time>2021-01-16T10:23:45Z</time>
      </trkpt>
      <trkpt lat="45.09266" lon="3.53013">
        <ele>516.85</ele>
        <time>2021-01-16T10:23:57Z</time>
      </trkpt>
      <trkpt lat="45.09266" lon="3.53011">
        <ele>516.85</ele>
        <time>2021-01-16T10:23:59Z</time>
      </trkpt>
      <trkpt lat="45.09283" lon="3.52979">
        <ele>518.29</ele>
        <time>2021-01-16T10:24:23Z</time>
      </trkpt>
      <trkpt lat="45.09302" lon="3.52948">
        <ele>522.61</ele>
        <time>2021-01-16T10:24:43Z</time>
      </trkpt>
      <trkpt lat="45.09308" lon="3.52932">
        <ele>523.58</ele>
        <time>2021-01-16T10:24:58Z</time>
      </trkpt>
      <trkpt lat="45.09308" lon="3.52931">
        <ele>523.09</ele>
        <time>2021-01-16T10:24:59Z</time>
      </trkpt>
      <trkpt lat="45.09318" lon="3.52906">
        <ele>523.58</ele>
        <time>2021-01-16T10:25:14Z</time>
      </trkpt>
      <trkpt lat="45.09326" lon="3.52892">
        <ele>520.21</ele>
        <time>2021-01-16T10:25:24Z</time>
      </trkpt>
      <trkpt lat="45.09333" lon="3.5288">
        <ele>512.04</ele>
        <time>2021-01-16T10:25:39Z</time>
      </trkpt>
      <trkpt lat="45.09338" lon="3.52863">
        <ele>507.71</ele>
        <time>2021-01-16T10:25:51Z</time>
      </trkpt>
      <trkpt lat="45.09341" lon="3.52856">
        <ele>509.16</ele>
        <time>2021-01-16T10:25:59Z</time>
      </trkpt>
      <trkpt lat="45.09343" lon="3.52851">
        <ele>509.16</ele>
        <time>2021-01-16T10:26:03Z</time>
      </trkpt>
      <trkpt lat="45.09345" lon="3.52826">
        <ele>506.75</ele>
        <time>2021-01-16T10:26:16Z</time>
      </trkpt>
      <trkpt lat="45.09346" lon="3.52813">
        <ele>507.71</ele>
        <time>2021-01-16T10:26:22Z</time>
      </trkpt>
      <trkpt lat="45.09349" lon="3.52798">
        <ele>507.23</ele>
        <time>2021-01-16T10:26:29Z</time>
      </trkpt>
      <trkpt lat="45.09355" lon="3.52786">
        <ele>506.75</ele>
        <time>2021-01-16T10:26:39Z</time>
      </trkpt>
      <trkpt lat="45.09357" lon="3.52784">
        <ele>506.75</ele>
        <time>2021-01-16T10:26:50Z</time>
      </trkpt>
      <trkpt lat="45.0936" lon="3.5277">
        <ele>503.87</ele>
        <time>2021-01-16T10:27:01Z</time>
      </trkpt>
      <trkpt lat="45.09364" lon="3.52743">
        <ele>502.43</ele>
        <time>2021-01-16T10:27:18Z</time>
      </trkpt>
      <trkpt lat="45.09365" lon="3.52741">
        <ele>502.43</ele>
        <time>2021-01-16T10:27:19Z</time>
      </trkpt>
      <trkpt lat="45.09369" lon="3.52728">
        <ele>500.98</ele>
        <time>2021-01-16T10:27:28Z</time>
      </trkpt>
      <trkpt lat="45.09367" lon="3.52715">
        <ele>501.95</ele>
        <time>2021-01-16T10:27:45Z</time>
      </trkpt>
      <trkpt lat="45.09369" lon="3.52707">
        <ele>501.95</ele>
        <time>2021-01-16T10:28:02Z</time>
      </trkpt>
      <trkpt lat="45.09371" lon="3.52697">
        <ele>501.95</ele>
        <time>2021-01-16T10:28:11Z</time>
      </trkpt>
      <trkpt lat="45.09368" lon="3.5269">
        <ele>500.5</ele>
        <time>2021-01-16T10:28:21Z</time>
      </trkpt>
      <trkpt lat="45.09369" lon="3.52684">
        <ele>499.06</ele>
        <time>2021-01-16T10:28:33Z</time>
      </trkpt>
      <trkpt lat="45.09371" lon="3.52683">
        <ele>499.06</ele>
        <time>2021-01-16T10:28:35Z</time>
      </trkpt>
      <trkpt lat="45.09376" lon="3.52686">
        <ele>499.54</ele>
        <time>2021-01-16T10:28:40Z</time>
      </trkpt>
      <trkpt lat="45.09379" lon="3.52681">
        <ele>500.98</ele>
        <time>2021-01-16T10:28:44Z</time>
      </trkpt>
      <trkpt lat="45.09389" lon="3.52655">
        <ele>499.06</ele>
        <time>2021-01-16T10:28:58Z</time>
      </trkpt>
      <trkpt lat="45.09401" lon="3.52632">
        <ele>497.62</ele>
        <time>2021-01-16T10:29:12Z</time>
      </trkpt>
      <trkpt lat="45.09411" lon="3.52613">
        <ele>497.62</ele>
        <time>2021-01-16T10:29:26Z</time>
      </trkpt>
      <trkpt lat="45.09415" lon="3.52606">
        <ele>500.5</ele>
        <time>2021-01-16T10:29:35Z</time>
      </trkpt>
      <trkpt lat="45.09414" lon="3.52595">
        <ele>499.54</ele>
        <time>2021-01-16T10:29:41Z</time>
      </trkpt>
      <trkpt lat="45.09414" lon="3.52588">
        <ele>499.06</ele>
        <time>2021-01-16T10:29:45Z</time>
      </trkpt>
      <trkpt lat="45.09413" lon="3.52581">
        <ele>499.06</ele>
        <time>2021-01-16T10:29:49Z</time>
      </trkpt>
      <trkpt lat="45.09413" lon="3.52569">
        <ele>498.58</ele>
        <time>2021-01-16T10:29:57Z</time>
      </trkpt>
      <trkpt lat="45.09413" lon="3.52566">
        <ele>498.58</ele>
        <time>2021-01-16T10:30:02Z</time>
      </trkpt>
      <trkpt lat="45.09414" lon="3.5256">
        <ele>498.1</ele>
        <time>2021-01-16T10:30:06Z</time>
      </trkpt>
      <trkpt lat="45.09418" lon="3.52537">
        <ele>500.02</ele>
        <time>2021-01-16T10:30:19Z</time>
      </trkpt>
      <trkpt lat="45.09423" lon="3.52524">
        <ele>501.46</ele>
        <time>2021-01-16T10:30:26Z</time>
      </trkpt>
      <trkpt lat="45.0943" lon="3.52504">
        <ele>502.91</ele>
        <time>2021-01-16T10:30:39Z</time>
      </trkpt>
      <trkpt lat="45.09431" lon="3.52502">
        <ele>502.91</ele>
        <time>2021-01-16T10:30:40Z</time>
      </trkpt>
      <trkpt lat="45.09434" lon="3.52499">
        <ele>502.91</ele>
        <time>2021-01-16T10:30:43Z</time>
      </trkpt>
      <trkpt lat="45.09435" lon="3.52494">
        <ele>502.91</ele>
        <time>2021-01-16T10:30:46Z</time>
      </trkpt>
      <trkpt lat="45.09435" lon="3.52485">
        <ele>502.43</ele>
        <time>2021-01-16T10:30:50Z</time>
      </trkpt>
      <trkpt lat="45.09442" lon="3.52456">
        <ele>501.46</ele>
        <time>2021-01-16T10:31:06Z</time>
      </trkpt>
      <trkpt lat="45.09442" lon="3.52452">
        <ele>501.46</ele>
        <time>2021-01-16T10:31:08Z</time>
      </trkpt>
      <trkpt lat="45.09442" lon="3.52437">
        <ele>500.98</ele>
        <time>2021-01-16T10:31:15Z</time>
      </trkpt>
      <trkpt lat="45.09443" lon="3.52424">
        <ele>501.46</ele>
        <time>2021-01-16T10:31:22Z</time>
      </trkpt>
      <trkpt lat="45.09449" lon="3.52398">
        <ele>502.43</ele>
        <time>2021-01-16T10:31:36Z</time>
      </trkpt>
      <trkpt lat="45.09449" lon="3.52394">
        <ele>502.43</ele>
        <time>2021-01-16T10:31:38Z</time>
      </trkpt>
      <trkpt lat="45.09452" lon="3.52381">
        <ele>502.91</ele>
        <time>2021-01-16T10:31:49Z</time>
      </trkpt>
      <trkpt lat="45.09457" lon="3.52365">
        <ele>504.83</ele>
        <time>2021-01-16T10:32:02Z</time>
      </trkpt>
      <trkpt lat="45.09459" lon="3.52356">
        <ele>505.79</ele>
        <time>2021-01-16T10:32:11Z</time>
      </trkpt>
      <trkpt lat="45.09459" lon="3.52351">
        <ele>506.27</ele>
        <time>2021-01-16T10:32:14Z</time>
      </trkpt>
      <trkpt lat="45.09465" lon="3.52325">
        <ele>504.35</ele>
        <time>2021-01-16T10:32:29Z</time>
      </trkpt>
      <trkpt lat="45.09468" lon="3.52303">
        <ele>503.39</ele>
        <time>2021-01-16T10:32:41Z</time>
      </trkpt>
      <trkpt lat="45.09471" lon="3.52279">
        <ele>500.02</ele>
        <time>2021-01-16T10:32:53Z</time>
      </trkpt>
      <trkpt lat="45.09479" lon="3.52259">
        <ele>500.98</ele>
        <time>2021-01-16T10:33:06Z</time>
      </trkpt>
      <trkpt lat="45.09484" lon="3.52247">
        <ele>501.46</ele>
        <time>2021-01-16T10:33:17Z</time>
      </trkpt>
      <trkpt lat="45.0949" lon="3.52228">
        <ele>500.02</ele>
        <time>2021-01-16T10:33:29Z</time>
      </trkpt>
      <trkpt lat="45.09494" lon="3.52203">
        <ele>499.54</ele>
        <time>2021-01-16T10:33:42Z</time>
      </trkpt>
      <trkpt lat="45.09499" lon="3.52181">
        <ele>500.02</ele>
        <time>2021-01-16T10:33:56Z</time>
      </trkpt>
      <trkpt lat="45.09506" lon="3.5216">
        <ele>502.91</ele>
        <time>2021-01-16T10:34:10Z</time>
      </trkpt>
      <trkpt lat="45.09512" lon="3.52133">
        <ele>503.39</ele>
        <time>2021-01-16T10:34:25Z</time>
      </trkpt>
      <trkpt lat="45.09516" lon="3.52116">
        <ele>503.39</ele>
        <time>2021-01-16T10:34:35Z</time>
      </trkpt>
      <trkpt lat="45.09518" lon="3.52108">
        <ele>503.39</ele>
        <time>2021-01-16T10:34:40Z</time>
      </trkpt>
      <trkpt lat="45.09523" lon="3.52078">
        <ele>501.95</ele>
        <time>2021-01-16T10:34:57Z</time>
      </trkpt>
      <trkpt lat="45.09523" lon="3.52061">
        <ele>502.43</ele>
        <time>2021-01-16T10:35:06Z</time>
      </trkpt>
      <trkpt lat="45.09526" lon="3.52033">
        <ele>499.54</ele>
        <time>2021-01-16T10:35:22Z</time>
      </trkpt>
      <trkpt lat="45.09531" lon="3.52003">
        <ele>498.58</ele>
        <time>2021-01-16T10:35:39Z</time>
      </trkpt>
      <trkpt lat="45.09532" lon="3.51994">
        <ele>498.1</ele>
        <time>2021-01-16T10:35:44Z</time>
      </trkpt>
      <trkpt lat="45.0954" lon="3.5197">
        <ele>497.62</ele>
        <time>2021-01-16T10:36:00Z</time>
      </trkpt>
      <trkpt lat="45.09545" lon="3.5194">
        <ele>495.7</ele>
        <time>2021-01-16T10:36:18Z</time>
      </trkpt>
      <trkpt lat="45.09555" lon="3.5191">
        <ele>496.18</ele>
        <time>2021-01-16T10:36:35Z</time>
      </trkpt>
      <trkpt lat="45.09561" lon="3.51891">
        <ele>497.62</ele>
        <time>2021-01-16T10:36:50Z</time>
      </trkpt>
      <trkpt lat="45.09568" lon="3.51871">
        <ele>499.54</ele>
        <time>2021-01-16T10:37:04Z</time>
      </trkpt>
      <trkpt lat="45.09575" lon="3.51835">
        <ele>497.62</ele>
        <time>2021-01-16T10:37:24Z</time>
      </trkpt>
      <trkpt lat="45.09576" lon="3.51824">
        <ele>500.5</ele>
        <time>2021-01-16T10:37:36Z</time>
      </trkpt>
      <trkpt lat="45.09577" lon="3.51817">
        <ele>501.46</ele>
        <time>2021-01-16T10:37:40Z</time>
      </trkpt>
      <trkpt lat="45.09578" lon="3.51799">
        <ele>500.98</ele>
        <time>2021-01-16T10:37:53Z</time>
      </trkpt>
      <trkpt lat="45.09578" lon="3.51796">
        <ele>500.5</ele>
        <time>2021-01-16T10:37:56Z</time>
      </trkpt>
      <trkpt lat="45.09578" lon="3.51793">
        <ele>500.5</ele>
        <time>2021-01-16T10:37:58Z</time>
      </trkpt>
      <trkpt lat="45.09582" lon="3.51777">
        <ele>501.46</ele>
        <time>2021-01-16T10:38:12Z</time>
      </trkpt>
      <trkpt lat="45.09584" lon="3.51763">
        <ele>501.46</ele>
        <time>2021-01-16T10:38:24Z</time>
      </trkpt>
      <trkpt lat="45.09585" lon="3.51753">
        <ele>502.43</ele>
        <time>2021-01-16T10:38:37Z</time>
      </trkpt>
      <trkpt lat="45.09584" lon="3.51751">
        <ele>502.43</ele>
        <time>2021-01-16T10:38:46Z</time>
      </trkpt>
      <trkpt lat="45.09586" lon="3.51752">
        <ele>501.95</ele>
        <time>2021-01-16T10:38:50Z</time>
      </trkpt>
      <trkpt lat="45.09588" lon="3.51727">
        <ele>500.5</ele>
        <time>2021-01-16T10:39:04Z</time>
      </trkpt>
      <trkpt lat="45.09592" lon="3.51704">
        <ele>500.02</ele>
        <time>2021-01-16T10:39:19Z</time>
      </trkpt>
      <trkpt lat="45.09594" lon="3.51668">
        <ele>500.5</ele>
        <time>2021-01-16T10:39:34Z</time>
      </trkpt>
      <trkpt lat="45.09591" lon="3.51638">
        <ele>500.98</ele>
        <time>2021-01-16T10:39:50Z</time>
      </trkpt>
      <trkpt lat="45.09591" lon="3.51635">
        <ele>501.46</ele>
        <time>2021-01-16T10:39:53Z</time>
      </trkpt>
      <trkpt lat="45.09588" lon="3.51629">
        <ele>501.95</ele>
        <time>2021-01-16T10:39:57Z</time>
      </trkpt>
      <trkpt lat="45.09586" lon="3.51616">
        <ele>501.46</ele>
        <time>2021-01-16T10:40:03Z</time>
      </trkpt>
      <trkpt lat="45.0958" lon="3.51593">
        <ele>502.91</ele>
        <time>2021-01-16T10:40:16Z</time>
      </trkpt>
      <trkpt lat="45.09573" lon="3.51576">
        <ele>505.31</ele>
        <time>2021-01-16T10:40:31Z</time>
      </trkpt>
      <trkpt lat="45.0957" lon="3.5156">
        <ele>507.23</ele>
        <time>2021-01-16T10:40:49Z</time>
      </trkpt>
      <trkpt lat="45.09563" lon="3.51541">
        <ele>509.16</ele>
        <time>2021-01-16T10:41:04Z</time>
      </trkpt>
      <trkpt lat="45.09561" lon="3.51536">
        <ele>507.23</ele>
        <time>2021-01-16T10:41:18Z</time>
      </trkpt>
      <trkpt lat="45.09562" lon="3.51534">
        <ele>505.31</ele>
        <time>2021-01-16T10:41:28Z</time>
      </trkpt>
      <trkpt lat="45.09561" lon="3.51528">
        <ele>503.87</ele>
        <time>2021-01-16T10:41:32Z</time>
      </trkpt>
      <trkpt lat="45.09561" lon="3.51522">
        <ele>502.91</ele>
        <time>2021-01-16T10:41:36Z</time>
      </trkpt>
      <trkpt lat="45.09557" lon="3.51504">
        <ele>504.83</ele>
        <time>2021-01-16T10:41:49Z</time>
      </trkpt>
      <trkpt lat="45.09555" lon="3.51489">
        <ele>505.79</ele>
        <time>2021-01-16T10:42:02Z</time>
      </trkpt>
      <trkpt lat="45.09553" lon="3.51471">
        <ele>505.31</ele>
        <time>2021-01-16T10:42:14Z</time>
      </trkpt>
      <trkpt lat="45.0955" lon="3.51453">
        <ele>505.31</ele>
        <time>2021-01-16T10:42:25Z</time>
      </trkpt>
      <trkpt lat="45.09549" lon="3.51441">
        <ele>504.35</ele>
        <time>2021-01-16T10:42:31Z</time>
      </trkpt>
      <trkpt lat="45.09548" lon="3.51435">
        <ele>503.87</ele>
        <time>2021-01-16T10:42:34Z</time>
      </trkpt>
      <trkpt lat="45.09543" lon="3.51414">
        <ele>502.91</ele>
        <time>2021-01-16T10:42:47Z</time>
      </trkpt>
      <trkpt lat="45.0954" lon="3.514">
        <ele>501.95</ele>
        <time>2021-01-16T10:42:55Z</time>
      </trkpt>
      <trkpt lat="45.09539" lon="3.51395">
        <ele>500.98</ele>
        <time>2021-01-16T10:42:58Z</time>
      </trkpt>
      <trkpt lat="45.09535" lon="3.51373">
        <ele>499.54</ele>
        <time>2021-01-16T10:43:12Z</time>
      </trkpt>
      <trkpt lat="45.09534" lon="3.51349">
        <ele>497.14</ele>
        <time>2021-01-16T10:43:26Z</time>
      </trkpt>
      <trkpt lat="45.0953" lon="3.51325">
        <ele>495.7</ele>
        <time>2021-01-16T10:43:40Z</time>
      </trkpt>
      <trkpt lat="45.09526" lon="3.51307">
        <ele>494.26</ele>
        <time>2021-01-16T10:43:57Z</time>
      </trkpt>
      <trkpt lat="45.09528" lon="3.51294">
        <ele>494.74</ele>
        <time>2021-01-16T10:44:11Z</time>
      </trkpt>
      <trkpt lat="45.09527" lon="3.51285">
        <ele>494.26</ele>
        <time>2021-01-16T10:44:17Z</time>
      </trkpt>
      <trkpt lat="45.09526" lon="3.51281">
        <ele>494.26</ele>
        <time>2021-01-16T10:44:19Z</time>
      </trkpt>
      <trkpt lat="45.09523" lon="3.51247">
        <ele>495.22</ele>
        <time>2021-01-16T10:44:37Z</time>
      </trkpt>
      <trkpt lat="45.0952" lon="3.51214">
        <ele>496.18</ele>
        <time>2021-01-16T10:44:53Z</time>
      </trkpt>
      <trkpt lat="45.09518" lon="3.51202">
        <ele>497.14</ele>
        <time>2021-01-16T10:44:59Z</time>
      </trkpt>
      <trkpt lat="45.09521" lon="3.51184">
        <ele>498.1</ele>
        <time>2021-01-16T10:45:10Z</time>
      </trkpt>
      <trkpt lat="45.09524" lon="3.51179">
        <ele>498.1</ele>
        <time>2021-01-16T10:45:13Z</time>
      </trkpt>
      <trkpt lat="45.09534" lon="3.51177">
        <ele>499.06</ele>
        <time>2021-01-16T10:45:21Z</time>
      </trkpt>
      <trkpt lat="45.09551" lon="3.51176">
        <ele>499.06</ele>
        <time>2021-01-16T10:45:36Z</time>
      </trkpt>
      <trkpt lat="45.09557" lon="3.51176">
        <ele>499.06</ele>
        <time>2021-01-16T10:45:41Z</time>
      </trkpt>
      <trkpt lat="45.09564" lon="3.51174">
        <ele>499.06</ele>
        <time>2021-01-16T10:45:47Z</time>
      </trkpt>
      <trkpt lat="45.09571" lon="3.51169">
        <ele>499.54</ele>
        <time>2021-01-16T10:45:53Z</time>
      </trkpt>
      <trkpt lat="45.09578" lon="3.51164">
        <ele>500.02</ele>
        <time>2021-01-16T10:45:59Z</time>
      </trkpt>
      <trkpt lat="45.09587" lon="3.51155">
        <ele>501.46</ele>
        <time>2021-01-16T10:46:13Z</time>
      </trkpt>
      <trkpt lat="45.09599" lon="3.51143">
        <ele>501.95</ele>
        <time>2021-01-16T10:46:26Z</time>
      </trkpt>
      <trkpt lat="45.09606" lon="3.51136">
        <ele>501.95</ele>
        <time>2021-01-16T10:46:38Z</time>
      </trkpt>
      <trkpt lat="45.09617" lon="3.51125">
        <ele>502.43</ele>
        <time>2021-01-16T10:46:52Z</time>
      </trkpt>
      <trkpt lat="45.09618" lon="3.51124">
        <ele>502.43</ele>
        <time>2021-01-16T10:47:04Z</time>
      </trkpt>
      <trkpt lat="45.09618" lon="3.51129">
        <ele>502.91</ele>
        <time>2021-01-16T10:47:18Z</time>
      </trkpt>
      <trkpt lat="45.09619" lon="3.51144">
        <ele>502.91</ele>
        <time>2021-01-16T10:47:32Z</time>
      </trkpt>
      <trkpt lat="45.09621" lon="3.51146">
        <ele>503.87</ele>
        <time>2021-01-16T10:47:43Z</time>
      </trkpt>
      <trkpt lat="45.0962" lon="3.51163">
        <ele>503.87</ele>
        <time>2021-01-16T10:47:53Z</time>
      </trkpt>
      <trkpt lat="45.09616" lon="3.51178">
        <ele>504.35</ele>
        <time>2021-01-16T10:48:06Z</time>
      </trkpt>
      <trkpt lat="45.09612" lon="3.51191">
        <ele>505.79</ele>
        <time>2021-01-16T10:48:21Z</time>
      </trkpt>
      <trkpt lat="45.0961" lon="3.51195">
        <ele>506.75</ele>
        <time>2021-01-16T10:48:25Z</time>
      </trkpt>
      <trkpt lat="45.09608" lon="3.51216">
        <ele>508.19</ele>
        <time>2021-01-16T10:48:42Z</time>
      </trkpt>
      <trkpt lat="45.09605" lon="3.51228">
        <ele>508.67</ele>
        <time>2021-01-16T10:48:52Z</time>
      </trkpt>
      <trkpt lat="45.09597" lon="3.51267">
        <ele>512.52</ele>
        <time>2021-01-16T10:49:19Z</time>
      </trkpt>
      <trkpt lat="45.09589" lon="3.5129">
        <ele>513.96</ele>
        <time>2021-01-16T10:49:33Z</time>
      </trkpt>
      <trkpt lat="45.09583" lon="3.5131">
        <ele>513.48</ele>
        <time>2021-01-16T10:49:45Z</time>
      </trkpt>
      <trkpt lat="45.09583" lon="3.51311">
        <ele>513</ele>
        <time>2021-01-16T10:49:46Z</time>
      </trkpt>
      <trkpt lat="45.09578" lon="3.51331">
        <ele>510.12</ele>
        <time>2021-01-16T10:49:58Z</time>
      </trkpt>
      <trkpt lat="45.09577" lon="3.51342">
        <ele>510.12</ele>
        <time>2021-01-16T10:50:07Z</time>
      </trkpt>
      <trkpt lat="45.09579" lon="3.51355">
        <ele>511.08</ele>
        <time>2021-01-16T10:50:14Z</time>
      </trkpt>
      <trkpt lat="45.09578" lon="3.51378">
        <ele>513.48</ele>
        <time>2021-01-16T10:50:26Z</time>
      </trkpt>
      <trkpt lat="45.09574" lon="3.51393">
        <ele>516.37</ele>
        <time>2021-01-16T10:50:34Z</time>
      </trkpt>
      <trkpt lat="45.09575" lon="3.51401">
        <ele>518.29</ele>
        <time>2021-01-16T10:50:38Z</time>
      </trkpt>
      <trkpt lat="45.09579" lon="3.51419">
        <ele>518.29</ele>
        <time>2021-01-16T10:50:50Z</time>
      </trkpt>
      <trkpt lat="45.09581" lon="3.51426">
        <ele>519.25</ele>
        <time>2021-01-16T10:50:54Z</time>
      </trkpt>
      <trkpt lat="45.09585" lon="3.51431">
        <ele>519.25</ele>
        <time>2021-01-16T10:50:58Z</time>
      </trkpt>
      <trkpt lat="45.09587" lon="3.51435">
        <ele>519.25</ele>
        <time>2021-01-16T10:51:01Z</time>
      </trkpt>
      <trkpt lat="45.0959" lon="3.5144">
        <ele>521.17</ele>
        <time>2021-01-16T10:51:05Z</time>
      </trkpt>
      <trkpt lat="45.09592" lon="3.51447">
        <ele>522.61</ele>
        <time>2021-01-16T10:51:09Z</time>
      </trkpt>
      <trkpt lat="45.09598" lon="3.51458">
        <ele>525.5</ele>
        <time>2021-01-16T10:51:16Z</time>
      </trkpt>
      <trkpt lat="45.09601" lon="3.5147">
        <ele>527.9</ele>
        <time>2021-01-16T10:51:24Z</time>
      </trkpt>
      <trkpt lat="45.09603" lon="3.5148">
        <ele>528.86</ele>
        <time>2021-01-16T10:51:30Z</time>
      </trkpt>
      <trkpt lat="45.09606" lon="3.51486">
        <ele>528.86</ele>
        <time>2021-01-16T10:51:35Z</time>
      </trkpt>
      <trkpt lat="45.09609" lon="3.51495">
        <ele>529.82</ele>
        <time>2021-01-16T10:51:41Z</time>
      </trkpt>
      <trkpt lat="45.09615" lon="3.51513">
        <ele>531.75</ele>
        <time>2021-01-16T10:51:53Z</time>
      </trkpt>
      <trkpt lat="45.09616" lon="3.51517">
        <ele>531.75</ele>
        <time>2021-01-16T10:51:56Z</time>
      </trkpt>
      <trkpt lat="45.09623" lon="3.51533">
        <ele>531.27</ele>
        <time>2021-01-16T10:52:08Z</time>
      </trkpt>
      <trkpt lat="45.0963" lon="3.51549">
        <ele>527.9</ele>
        <time>2021-01-16T10:52:19Z</time>
      </trkpt>
      <trkpt lat="45.09643" lon="3.51565">
        <ele>524.06</ele>
        <time>2021-01-16T10:52:37Z</time>
      </trkpt>
      <trkpt lat="45.09647" lon="3.51572">
        <ele>522.61</ele>
        <time>2021-01-16T10:52:43Z</time>
      </trkpt>
      <trkpt lat="45.0966" lon="3.51594">
        <ele>517.33</ele>
        <time>2021-01-16T10:53:04Z</time>
      </trkpt>
      <trkpt lat="45.09665" lon="3.51618">
        <ele>514.44</ele>
        <time>2021-01-16T10:53:23Z</time>
      </trkpt>
      <trkpt lat="45.09675" lon="3.51647">
        <ele>513</ele>
        <time>2021-01-16T10:53:38Z</time>
      </trkpt>
      <trkpt lat="45.09681" lon="3.51672">
        <ele>512.04</ele>
        <time>2021-01-16T10:53:54Z</time>
      </trkpt>
      <trkpt lat="45.09694" lon="3.51735">
        <ele>512.04</ele>
        <time>2021-01-16T10:54:31Z</time>
      </trkpt>
      <trkpt lat="45.09697" lon="3.51741">
        <ele>511.56</ele>
        <time>2021-01-16T10:54:35Z</time>
      </trkpt>
      <trkpt lat="45.09712" lon="3.5176">
        <ele>511.08</ele>
        <time>2021-01-16T10:54:50Z</time>
      </trkpt>
      <trkpt lat="45.09723" lon="3.51775">
        <ele>512.52</ele>
        <time>2021-01-16T10:55:03Z</time>
      </trkpt>
      <trkpt lat="45.09724" lon="3.51795">
        <ele>513</ele>
        <time>2021-01-16T10:55:13Z</time>
      </trkpt>
      <trkpt lat="45.0972" lon="3.51833">
        <ele>514.44</ele>
        <time>2021-01-16T10:55:31Z</time>
      </trkpt>
      <trkpt lat="45.09723" lon="3.51854">
        <ele>515.4</ele>
        <time>2021-01-16T10:55:44Z</time>
      </trkpt>
      <trkpt lat="45.09727" lon="3.51887">
        <ele>517.81</ele>
        <time>2021-01-16T10:56:01Z</time>
      </trkpt>
      <trkpt lat="45.09736" lon="3.51912">
        <ele>520.69</ele>
        <time>2021-01-16T10:56:17Z</time>
      </trkpt>
      <trkpt lat="45.09751" lon="3.5194">
        <ele>526.94</ele>
        <time>2021-01-16T10:56:36Z</time>
      </trkpt>
      <trkpt lat="45.09761" lon="3.51959">
        <ele>529.82</ele>
        <time>2021-01-16T10:56:53Z</time>
      </trkpt>
      <trkpt lat="45.09766" lon="3.51971">
        <ele>527.9</ele>
        <time>2021-01-16T10:57:08Z</time>
      </trkpt>
      <trkpt lat="45.09769" lon="3.5198">
        <ele>528.38</ele>
        <time>2021-01-16T10:57:22Z</time>
      </trkpt>
      <trkpt lat="45.09778" lon="3.5199">
        <ele>528.38</ele>
        <time>2021-01-16T10:57:34Z</time>
      </trkpt>
      <trkpt lat="45.09801" lon="3.52005">
        <ele>529.82</ele>
        <time>2021-01-16T10:57:52Z</time>
      </trkpt>
      <trkpt lat="45.09819" lon="3.52016">
        <ele>531.75</ele>
        <time>2021-01-16T10:58:07Z</time>
      </trkpt>
      <trkpt lat="45.09836" lon="3.52024">
        <ele>535.11</ele>
        <time>2021-01-16T10:58:23Z</time>
      </trkpt>
      <trkpt lat="45.09839" lon="3.52022">
        <ele>535.59</ele>
        <time>2021-01-16T10:58:26Z</time>
      </trkpt>
      <trkpt lat="45.09855" lon="3.52007">
        <ele>536.07</ele>
        <time>2021-01-16T10:58:42Z</time>
      </trkpt>
      <trkpt lat="45.0986" lon="3.51999">
        <ele>537.03</ele>
        <time>2021-01-16T10:58:48Z</time>
      </trkpt>
      <trkpt lat="45.0987" lon="3.51967">
        <ele>539.92</ele>
        <time>2021-01-16T10:59:09Z</time>
      </trkpt>
      <trkpt lat="45.09878" lon="3.51949">
        <ele>543.28</ele>
        <time>2021-01-16T10:59:26Z</time>
      </trkpt>
      <trkpt lat="45.09894" lon="3.51964">
        <ele>539.5</ele>
      </trkpt>
      <trkpt lat="45.09978" lon="3.51982">
        <ele>547.1</ele>
      </trkpt>
      <trkpt lat="45.09988" lon="3.51998">
        <ele>547.9</ele>
      </trkpt>
      <trkpt lat="45.10052" lon="3.52018">
        <ele>550.4</ele>
      </trkpt>
      <trkpt lat="45.10056" lon="3.52017">
        <ele>554.82</ele>
        <time>2021-01-16T11:06:27Z</time>
      </trkpt>
      <trkpt lat="45.10057" lon="3.52034">
        <ele>556.74</ele>
        <time>2021-01-16T11:06:39Z</time>
      </trkpt>
      <trkpt lat="45.10056" lon="3.52049">
        <ele>557.7</ele>
        <time>2021-01-16T11:06:48Z</time>
      </trkpt>
      <trkpt lat="45.10058" lon="3.52068">
        <ele>557.7</ele>
        <time>2021-01-16T11:07:01Z</time>
      </trkpt>
      <trkpt lat="45.10058" lon="3.52084">
        <ele>559.14</ele>
        <time>2021-01-16T11:07:15Z</time>
      </trkpt>
      <trkpt lat="45.10055" lon="3.52112">
        <ele>561.55</ele>
        <time>2021-01-16T11:07:31Z</time>
      </trkpt>
      <trkpt lat="45.10053" lon="3.52135">
        <ele>562.03</ele>
        <time>2021-01-16T11:07:46Z</time>
      </trkpt>
      <trkpt lat="45.1005" lon="3.52141">
        <ele>562.03</ele>
        <time>2021-01-16T11:08:00Z</time>
      </trkpt>
      <trkpt lat="45.10044" lon="3.52167">
        <ele>560.59</ele>
        <time>2021-01-16T11:08:15Z</time>
      </trkpt>
      <trkpt lat="45.1004" lon="3.52191">
        <ele>559.62</ele>
        <time>2021-01-16T11:08:31Z</time>
      </trkpt>
      <trkpt lat="45.10036" lon="3.52206">
        <ele>560.59</ele>
        <time>2021-01-16T11:08:45Z</time>
      </trkpt>
      <trkpt lat="45.10032" lon="3.52232">
        <ele>560.59</ele>
        <time>2021-01-16T11:09:00Z</time>
      </trkpt>
      <trkpt lat="45.10029" lon="3.5225">
        <ele>560.11</ele>
        <time>2021-01-16T11:09:15Z</time>
      </trkpt>
      <trkpt lat="45.10023" lon="3.5227">
        <ele>561.07</ele>
        <time>2021-01-16T11:09:34Z</time>
      </trkpt>
      <trkpt lat="45.10015" lon="3.52302">
        <ele>564.91</ele>
        <time>2021-01-16T11:09:52Z</time>
      </trkpt>
      <trkpt lat="45.10012" lon="3.52329">
        <ele>567.32</ele>
        <time>2021-01-16T11:10:08Z</time>
      </trkpt>
      <trkpt lat="45.10008" lon="3.52353">
        <ele>568.76</ele>
        <time>2021-01-16T11:10:22Z</time>
      </trkpt>
      <trkpt lat="45.10002" lon="3.52379">
        <ele>570.2</ele>
        <time>2021-01-16T11:10:38Z</time>
      </trkpt>
      <trkpt lat="45.09997" lon="3.52405">
        <ele>571.64</ele>
        <time>2021-01-16T11:10:52Z</time>
      </trkpt>
      <trkpt lat="45.09993" lon="3.52428">
        <ele>571.64</ele>
        <time>2021-01-16T11:11:05Z</time>
      </trkpt>
      <trkpt lat="45.09992" lon="3.52437">
        <ele>571.64</ele>
        <time>2021-01-16T11:11:11Z</time>
      </trkpt>
      <trkpt lat="45.0999" lon="3.5246">
        <ele>572.6</ele>
        <time>2021-01-16T11:11:26Z</time>
      </trkpt>
      <trkpt lat="45.09988" lon="3.52469">
        <ele>573.08</ele>
        <time>2021-01-16T11:11:47Z</time>
      </trkpt>
      <trkpt lat="45.09988" lon="3.52507">
        <ele>575.01</ele>
        <time>2021-01-16T11:12:07Z</time>
      </trkpt>
      <trkpt lat="45.09986" lon="3.52537">
        <ele>576.45</ele>
        <time>2021-01-16T11:12:24Z</time>
      </trkpt>
      <trkpt lat="45.09979" lon="3.52571">
        <ele>577.89</ele>
        <time>2021-01-16T11:12:44Z</time>
      </trkpt>
      <trkpt lat="45.09972" lon="3.52604">
        <ele>580.77</ele>
        <time>2021-01-16T11:13:03Z</time>
      </trkpt>
      <trkpt lat="45.09964" lon="3.52634">
        <ele>581.73</ele>
        <time>2021-01-16T11:13:20Z</time>
      </trkpt>
      <trkpt lat="45.09957" lon="3.52664">
        <ele>584.62</ele>
        <time>2021-01-16T11:13:37Z</time>
      </trkpt>
      <trkpt lat="45.09951" lon="3.52694">
        <ele>587.5</ele>
        <time>2021-01-16T11:13:55Z</time>
      </trkpt>
      <trkpt lat="45.09944" lon="3.52725">
        <ele>589.91</ele>
        <time>2021-01-16T11:14:13Z</time>
      </trkpt>
      <trkpt lat="45.09941" lon="3.52752">
        <ele>590.39</ele>
        <time>2021-01-16T11:14:28Z</time>
      </trkpt>
      <trkpt lat="45.09938" lon="3.52764">
        <ele>589.43</ele>
        <time>2021-01-16T11:14:43Z</time>
      </trkpt>
      <trkpt lat="45.09938" lon="3.52776">
        <ele>589.43</ele>
        <time>2021-01-16T11:15:06Z</time>
      </trkpt>
      <trkpt lat="45.09935" lon="3.52807">
        <ele>588.46</ele>
        <time>2021-01-16T11:15:23Z</time>
      </trkpt>
      <trkpt lat="45.09934" lon="3.52832">
        <ele>588.95</ele>
        <time>2021-01-16T11:15:39Z</time>
      </trkpt>
      <trkpt lat="45.0993" lon="3.52863">
        <ele>589.91</ele>
        <time>2021-01-16T11:15:58Z</time>
      </trkpt>
      <trkpt lat="45.09922" lon="3.52891">
        <ele>591.83</ele>
        <time>2021-01-16T11:16:17Z</time>
      </trkpt>
      <trkpt lat="45.09914" lon="3.52904">
        <ele>592.31</ele>
        <time>2021-01-16T11:16:32Z</time>
      </trkpt>
      <trkpt lat="45.09912" lon="3.5291">
        <ele>591.83</ele>
        <time>2021-01-16T11:16:39Z</time>
      </trkpt>
      <trkpt lat="45.09904" lon="3.52934">
        <ele>593.27</ele>
        <time>2021-01-16T11:16:55Z</time>
      </trkpt>
      <trkpt lat="45.09894" lon="3.52961">
        <ele>592.79</ele>
        <time>2021-01-16T11:17:15Z</time>
      </trkpt>
      <trkpt lat="45.09893" lon="3.52963">
        <ele>591.83</ele>
        <time>2021-01-16T11:17:34Z</time>
      </trkpt>
      <trkpt lat="45.09892" lon="3.52965">
        <ele>590.39</ele>
        <time>2021-01-16T11:17:54Z</time>
      </trkpt>
      <trkpt lat="45.09889" lon="3.52966">
        <ele>589.91</ele>
        <time>2021-01-16T11:18:06Z</time>
      </trkpt>
      <trkpt lat="45.09862" lon="3.5298">
        <ele>587.02</ele>
        <time>2021-01-16T11:18:27Z</time>
      </trkpt>
      <trkpt lat="45.09834" lon="3.52996">
        <ele>586.54</ele>
        <time>2021-01-16T11:18:47Z</time>
      </trkpt>
      <trkpt lat="45.09821" lon="3.53002">
        <ele>586.06</ele>
        <time>2021-01-16T11:18:57Z</time>
      </trkpt>
      <trkpt lat="45.09808" lon="3.53014">
        <ele>585.1</ele>
        <time>2021-01-16T11:19:08Z</time>
      </trkpt>
      <trkpt lat="45.09789" lon="3.5304">
        <ele>584.62</ele>
        <time>2021-01-16T11:19:28Z</time>
      </trkpt>
      <trkpt lat="45.09776" lon="3.53066">
        <ele>586.06</ele>
        <time>2021-01-16T11:19:46Z</time>
      </trkpt>
      <trkpt lat="45.09762" lon="3.53093">
        <ele>590.39</ele>
        <time>2021-01-16T11:20:05Z</time>
      </trkpt>
      <trkpt lat="45.09746" lon="3.53128">
        <ele>594.23</ele>
        <time>2021-01-16T11:20:25Z</time>
      </trkpt>
      <trkpt lat="45.09731" lon="3.53159">
        <ele>595.67</ele>
        <time>2021-01-16T11:20:44Z</time>
      </trkpt>
      <trkpt lat="45.09713" lon="3.53194">
        <ele>596.15</ele>
        <time>2021-01-16T11:21:05Z</time>
      </trkpt>
      <trkpt lat="45.097" lon="3.53219">
        <ele>595.19</ele>
        <time>2021-01-16T11:21:23Z</time>
      </trkpt>
      <trkpt lat="45.09693" lon="3.53225">
        <ele>590.39</ele>
        <time>2021-01-16T11:21:42Z</time>
      </trkpt>
      <trkpt lat="45.0969" lon="3.53229">
        <ele>586.06</ele>
        <time>2021-01-16T11:22:00Z</time>
      </trkpt>
      <trkpt lat="45.09688" lon="3.53231">
        <ele>585.58</ele>
        <time>2021-01-16T11:22:03Z</time>
      </trkpt>
      <trkpt lat="45.09684" lon="3.53237">
        <ele>584.14</ele>
        <time>2021-01-16T11:22:08Z</time>
      </trkpt>
      <trkpt lat="45.09667" lon="3.53253">
        <ele>582.7</ele>
        <time>2021-01-16T11:22:26Z</time>
      </trkpt>
      <trkpt lat="45.09652" lon="3.53272">
        <ele>584.62</ele>
        <time>2021-01-16T11:22:41Z</time>
      </trkpt>
      <trkpt lat="45.09637" lon="3.53296">
        <ele>586.54</ele>
        <time>2021-01-16T11:22:57Z</time>
      </trkpt>
      <trkpt lat="45.0963" lon="3.53315">
        <ele>587.98</ele>
        <time>2021-01-16T11:23:10Z</time>
      </trkpt>
      <trkpt lat="45.09622" lon="3.53339">
        <ele>590.39</ele>
        <time>2021-01-16T11:23:23Z</time>
      </trkpt>
      <trkpt lat="45.09606" lon="3.53362">
        <ele>592.79</ele>
        <time>2021-01-16T11:23:38Z</time>
      </trkpt>
      <trkpt lat="45.09593" lon="3.53379">
        <ele>594.23</ele>
        <time>2021-01-16T11:23:53Z</time>
      </trkpt>
      <trkpt lat="45.09588" lon="3.53387">
        <ele>592.31</ele>
        <time>2021-01-16T11:24:09Z</time>
      </trkpt>
      <trkpt lat="45.09587" lon="3.53388">
        <ele>591.35</ele>
        <time>2021-01-16T11:24:14Z</time>
      </trkpt>
      <trkpt lat="45.09577" lon="3.53419">
        <ele>591.35</ele>
        <time>2021-01-16T11:24:30Z</time>
      </trkpt>
      <trkpt lat="45.09572" lon="3.53454">
        <ele>592.79</ele>
        <time>2021-01-16T11:24:47Z</time>
      </trkpt>
      <trkpt lat="45.09568" lon="3.53483">
        <ele>596.64</ele>
        <time>2021-01-16T11:25:02Z</time>
      </trkpt>
      <trkpt lat="45.09565" lon="3.53514">
        <ele>600</ele>
        <time>2021-01-16T11:25:18Z</time>
      </trkpt>
      <trkpt lat="45.09564" lon="3.53528">
        <ele>601.44</ele>
        <time>2021-01-16T11:25:25Z</time>
      </trkpt>
      <trkpt lat="45.09563" lon="3.53541">
        <ele>602.4</ele>
        <time>2021-01-16T11:25:31Z</time>
      </trkpt>
      <trkpt lat="45.09562" lon="3.53572">
        <ele>605.29</ele>
        <time>2021-01-16T11:25:47Z</time>
      </trkpt>
      <trkpt lat="45.09557" lon="3.536">
        <ele>605.77</ele>
        <time>2021-01-16T11:26:01Z</time>
      </trkpt>
      <trkpt lat="45.09548" lon="3.53626">
        <ele>608.17</ele>
        <time>2021-01-16T11:26:16Z</time>
      </trkpt>
      <trkpt lat="45.09538" lon="3.53648">
        <ele>610.09</ele>
        <time>2021-01-16T11:26:30Z</time>
      </trkpt>
      <trkpt lat="45.09526" lon="3.53672">
        <ele>609.61</ele>
        <time>2021-01-16T11:26:44Z</time>
      </trkpt>
      <trkpt lat="45.09513" lon="3.53695">
        <ele>609.61</ele>
        <time>2021-01-16T11:26:59Z</time>
      </trkpt>
      <trkpt lat="45.09496" lon="3.53721">
        <ele>609.13</ele>
        <time>2021-01-16T11:27:15Z</time>
      </trkpt>
      <trkpt lat="45.09481" lon="3.5374">
        <ele>605.29</ele>
        <time>2021-01-16T11:27:28Z</time>
      </trkpt>
      <trkpt lat="45.09468" lon="3.53765">
        <ele>603.85</ele>
        <time>2021-01-16T11:27:43Z</time>
      </trkpt>
      <trkpt lat="45.09466" lon="3.53788">
        <ele>604.81</ele>
        <time>2021-01-16T11:27:55Z</time>
      </trkpt>
      <trkpt lat="45.09465" lon="3.53796">
        <ele>604.81</ele>
        <time>2021-01-16T11:27:59Z</time>
      </trkpt>
      <trkpt lat="45.09472" lon="3.53833">
        <ele>604.81</ele>
        <time>2021-01-16T11:28:17Z</time>
      </trkpt>
      <trkpt lat="45.09483" lon="3.53866">
        <ele>605.77</ele>
        <time>2021-01-16T11:28:34Z</time>
      </trkpt>
      <trkpt lat="45.09491" lon="3.53893">
        <ele>608.17</ele>
        <time>2021-01-16T11:28:49Z</time>
      </trkpt>
      <trkpt lat="45.09499" lon="3.53923">
        <ele>610.57</ele>
        <time>2021-01-16T11:29:06Z</time>
      </trkpt>
      <trkpt lat="45.09505" lon="3.53947">
        <ele>611.54</ele>
        <time>2021-01-16T11:29:18Z</time>
      </trkpt>
      <trkpt lat="45.09507" lon="3.53975">
        <ele>612.02</ele>
        <time>2021-01-16T11:29:33Z</time>
      </trkpt>
      <trkpt lat="45.09508" lon="3.54001">
        <ele>612.98</ele>
        <time>2021-01-16T11:29:48Z</time>
      </trkpt>
      <trkpt lat="45.09508" lon="3.54027">
        <ele>612.98</ele>
        <time>2021-01-16T11:30:02Z</time>
      </trkpt>
      <trkpt lat="45.09508" lon="3.54054">
        <ele>611.54</ele>
        <time>2021-01-16T11:30:18Z</time>
      </trkpt>
      <trkpt lat="45.09506" lon="3.54076">
        <ele>610.57</ele>
        <time>2021-01-16T11:30:30Z</time>
      </trkpt>
      <trkpt lat="45.09506" lon="3.54098">
        <ele>609.61</ele>
        <time>2021-01-16T11:30:46Z</time>
      </trkpt>
      <trkpt lat="45.09506" lon="3.54129">
        <ele>608.17</ele>
        <time>2021-01-16T11:31:02Z</time>
      </trkpt>
      <trkpt lat="45.09506" lon="3.54158">
        <ele>611.06</ele>
        <time>2021-01-16T11:31:18Z</time>
      </trkpt>
      <trkpt lat="45.09507" lon="3.54192">
        <ele>615.86</ele>
        <time>2021-01-16T11:31:37Z</time>
      </trkpt>
      <trkpt lat="45.09508" lon="3.54202">
        <ele>617.78</ele>
        <time>2021-01-16T11:31:43Z</time>
      </trkpt>
      <trkpt lat="45.09509" lon="3.54234">
        <ele>621.63</ele>
        <time>2021-01-16T11:32:01Z</time>
      </trkpt>
      <trkpt lat="45.09509" lon="3.54243">
        <ele>622.11</ele>
        <time>2021-01-16T11:32:19Z</time>
      </trkpt>
      <trkpt lat="45.09508" lon="3.54247">
        <ele>621.15</ele>
        <time>2021-01-16T11:32:35Z</time>
      </trkpt>
      <trkpt lat="45.09502" lon="3.54261">
        <ele>621.15</ele>
        <time>2021-01-16T11:32:48Z</time>
      </trkpt>
      <trkpt lat="45.09499" lon="3.54271">
        <ele>621.15</ele>
        <time>2021-01-16T11:32:57Z</time>
      </trkpt>
      <trkpt lat="45.09486" lon="3.54295">
        <ele>621.15</ele>
        <time>2021-01-16T11:33:12Z</time>
      </trkpt>
      <trkpt lat="45.09472" lon="3.54323">
        <ele>622.59</ele>
        <time>2021-01-16T11:33:27Z</time>
      </trkpt>
      <trkpt lat="45.09466" lon="3.54344">
        <ele>623.55</ele>
        <time>2021-01-16T11:33:42Z</time>
      </trkpt>
      <trkpt lat="45.09463" lon="3.54351">
        <ele>624.03</ele>
        <time>2021-01-16T11:33:55Z</time>
      </trkpt>
      <trkpt lat="45.09461" lon="3.54357">
        <ele>624.51</ele>
        <time>2021-01-16T11:34:14Z</time>
      </trkpt>
      <trkpt lat="45.09455" lon="3.54389">
        <ele>625.96</ele>
        <time>2021-01-16T11:34:32Z</time>
      </trkpt>
      <trkpt lat="45.09453" lon="3.54409">
        <ele>626.44</ele>
        <time>2021-01-16T11:34:46Z</time>
      </trkpt>
      <trkpt lat="45.09452" lon="3.54414">
        <ele>624.99</ele>
        <time>2021-01-16T11:35:02Z</time>
      </trkpt>
      <trkpt lat="45.09454" lon="3.5442">
        <ele>623.55</ele>
        <time>2021-01-16T11:35:18Z</time>
      </trkpt>
      <trkpt lat="45.09458" lon="3.54426">
        <ele>623.55</ele>
        <time>2021-01-16T11:35:32Z</time>
      </trkpt>
      <trkpt lat="45.09459" lon="3.54427">
        <ele>623.07</ele>
        <time>2021-01-16T11:35:48Z</time>
      </trkpt>
      <trkpt lat="45.09459" lon="3.54428">
        <ele>623.55</ele>
        <time>2021-01-16T11:36:08Z</time>
      </trkpt>
      <trkpt lat="45.09459" lon="3.54429">
        <ele>622.59</ele>
        <time>2021-01-16T11:36:22Z</time>
      </trkpt>
      <trkpt lat="45.09457" lon="3.54432">
        <ele>622.59</ele>
        <time>2021-01-16T11:36:25Z</time>
      </trkpt>
      <trkpt lat="45.0945" lon="3.54442">
        <ele>621.63</ele>
        <time>2021-01-16T11:36:35Z</time>
      </trkpt>
      <trkpt lat="45.09445" lon="3.54446">
        <ele>623.07</ele>
        <time>2021-01-16T11:36:41Z</time>
      </trkpt>
      <trkpt lat="45.09441" lon="3.54451">
        <ele>624.03</ele>
        <time>2021-01-16T11:36:45Z</time>
      </trkpt>
      <trkpt lat="45.09422" lon="3.54475">
        <ele>628.36</ele>
        <time>2021-01-16T11:37:06Z</time>
      </trkpt>
      <trkpt lat="45.09409" lon="3.54498">
        <ele>630.76</ele>
        <time>2021-01-16T11:37:22Z</time>
      </trkpt>
      <trkpt lat="45.09398" lon="3.54523">
        <ele>632.68</ele>
        <time>2021-01-16T11:37:38Z</time>
      </trkpt>
      <trkpt lat="45.09394" lon="3.54533">
        <ele>629.8</ele>
        <time>2021-01-16T11:37:51Z</time>
      </trkpt>
      <trkpt lat="45.09389" lon="3.54541">
        <ele>628.84</ele>
        <time>2021-01-16T11:38:04Z</time>
      </trkpt>
      <trkpt lat="45.0938" lon="3.54566">
        <ele>627.88</ele>
        <time>2021-01-16T11:38:23Z</time>
      </trkpt>
      <trkpt lat="45.09378" lon="3.5457">
        <ele>627.88</ele>
        <time>2021-01-16T11:38:30Z</time>
      </trkpt>
      <trkpt lat="45.09375" lon="3.54577">
        <ele>627.88</ele>
        <time>2021-01-16T11:38:35Z</time>
      </trkpt>
      <trkpt lat="45.09365" lon="3.54603">
        <ele>627.88</ele>
        <time>2021-01-16T11:38:53Z</time>
      </trkpt>
      <trkpt lat="45.09357" lon="3.5462">
        <ele>626.92</ele>
        <time>2021-01-16T11:39:10Z</time>
      </trkpt>
      <trkpt lat="45.09356" lon="3.54618">
        <ele>627.4</ele>
        <time>2021-01-16T11:39:21Z</time>
      </trkpt>
      <trkpt lat="45.09357" lon="3.54617">
        <ele>626.92</ele>
        <time>2021-01-16T11:39:36Z</time>
      </trkpt>
      <trkpt lat="45.09357" lon="3.54617">
        <ele>626.44</ele>
        <time>2021-01-16T11:39:54Z</time>
      </trkpt>
      <trkpt lat="45.09358" lon="3.54617">
        <ele>626.44</ele>
        <time>2021-01-16T11:40:16Z</time>
      </trkpt>
      <trkpt lat="45.09359" lon="3.54618">
        <ele>626.44</ele>
        <time>2021-01-16T11:40:38Z</time>
      </trkpt>
      <trkpt lat="45.09358" lon="3.5462">
        <ele>625.47</ele>
        <time>2021-01-16T11:40:59Z</time>
      </trkpt>
      <trkpt lat="45.09358" lon="3.5462">
        <ele>625.47</ele>
        <time>2021-01-16T11:41:23Z</time>
      </trkpt>
      <trkpt lat="45.09358" lon="3.5462">
        <ele>624.99</ele>
        <time>2021-01-16T11:41:42Z</time>
      </trkpt>
      <trkpt lat="45.09358" lon="3.5462">
        <ele>624.51</ele>
        <time>2021-01-16T11:42:03Z</time>
      </trkpt>
      <trkpt lat="45.09358" lon="3.54621">
        <ele>624.51</ele>
        <time>2021-01-16T11:42:27Z</time>
      </trkpt>
      <trkpt lat="45.09358" lon="3.54621">
        <ele>624.51</ele>
        <time>2021-01-16T11:42:47Z</time>
      </trkpt>
      <trkpt lat="45.09358" lon="3.54621">
        <ele>624.51</ele>
        <time>2021-01-16T11:43:10Z</time>
      </trkpt>
      <trkpt lat="45.09356" lon="3.54625">
        <ele>624.51</ele>
        <time>2021-01-16T11:43:29Z</time>
      </trkpt>
      <trkpt lat="45.0935" lon="3.54635">
        <ele>624.51</ele>
        <time>2021-01-16T11:43:41Z</time>
      </trkpt>
      <trkpt lat="45.09335" lon="3.54653">
        <ele>626.92</ele>
        <time>2021-01-16T11:43:56Z</time>
      </trkpt>
      <trkpt lat="45.09322" lon="3.54664">
        <ele>632.68</ele>
        <time>2021-01-16T11:44:09Z</time>
      </trkpt>
      <trkpt lat="45.09313" lon="3.54667">
        <ele>633.17</ele>
        <time>2021-01-16T11:44:16Z</time>
      </trkpt>
      <trkpt lat="45.09311" lon="3.54669">
        <ele>633.65</ele>
        <time>2021-01-16T11:44:19Z</time>
      </trkpt>
      <trkpt lat="45.09299" lon="3.54681">
        <ele>632.2</ele>
        <time>2021-01-16T11:44:29Z</time>
      </trkpt>
      <trkpt lat="45.09294" lon="3.54683">
        <ele>631.24</ele>
        <time>2021-01-16T11:44:33Z</time>
      </trkpt>
      <trkpt lat="45.09286" lon="3.54685">
        <ele>629.32</ele>
        <time>2021-01-16T11:44:44Z</time>
      </trkpt>
      <trkpt lat="45.09281" lon="3.54686">
        <ele>627.88</ele>
        <time>2021-01-16T11:44:56Z</time>
      </trkpt>
      <trkpt lat="45.09272" lon="3.54693">
        <ele>627.88</ele>
        <time>2021-01-16T11:45:13Z</time>
      </trkpt>
      <trkpt lat="45.09272" lon="3.54693">
        <ele>628.36</ele>
        <time>2021-01-16T11:45:35Z</time>
      </trkpt>
      <trkpt lat="45.09273" lon="3.54692">
        <ele>628.36</ele>
        <time>2021-01-16T11:45:56Z</time>
      </trkpt>
      <trkpt lat="45.09269" lon="3.547">
        <ele>628.36</ele>
        <time>2021-01-16T11:46:10Z</time>
      </trkpt>
      <trkpt lat="45.09269" lon="3.54693">
        <ele>631.72</ele>
        <time>2021-01-16T11:46:25Z</time>
      </trkpt>
      <trkpt lat="45.0927" lon="3.54691">
        <ele>632.2</ele>
        <time>2021-01-16T11:46:35Z</time>
      </trkpt>
      <trkpt lat="45.09269" lon="3.54693">
        <ele>632.2</ele>
        <time>2021-01-16T11:46:41Z</time>
      </trkpt>
      <trkpt lat="45.09267" lon="3.54701">
        <ele>632.68</ele>
        <time>2021-01-16T11:46:49Z</time>
      </trkpt>
      <trkpt lat="45.09256" lon="3.54715">
        <ele>633.65</ele>
        <time>2021-01-16T11:47:04Z</time>
      </trkpt>
      <trkpt lat="45.09256" lon="3.54715">
        <ele>633.17</ele>
        <time>2021-01-16T11:47:28Z</time>
      </trkpt>
      <trkpt lat="45.09256" lon="3.54715">
        <ele>633.17</ele>
        <time>2021-01-16T11:47:49Z</time>
      </trkpt>
      <trkpt lat="45.09256" lon="3.54715">
        <ele>632.68</ele>
        <time>2021-01-16T11:48:07Z</time>
      </trkpt>
      <trkpt lat="45.09267" lon="3.54701">
        <ele>631.72</ele>
        <time>2021-01-16T11:48:23Z</time>
      </trkpt>
      <trkpt lat="45.09269" lon="3.54695">
        <ele>630.28</ele>
        <time>2021-01-16T11:48:38Z</time>
      </trkpt>
      <trkpt lat="45.0927" lon="3.54695">
        <ele>629.32</ele>
        <time>2021-01-16T11:49:03Z</time>
      </trkpt>
      <trkpt lat="45.09272" lon="3.54695">
        <ele>630.28</ele>
        <time>2021-01-16T11:49:29Z</time>
      </trkpt>
      <trkpt lat="45.09271" lon="3.54695">
        <ele>629.8</ele>
        <time>2021-01-16T11:49:53Z</time>
      </trkpt>
      <trkpt lat="45.09271" lon="3.54695">
        <ele>629.8</ele>
        <time>2021-01-16T11:50:21Z</time>
      </trkpt>
      <trkpt lat="45.09271" lon="3.54695">
        <ele>629.32</ele>
        <time>2021-01-16T11:50:52Z</time>
      </trkpt>
      <trkpt lat="45.0927" lon="3.54695">
        <ele>629.32</ele>
        <time>2021-01-16T11:51:19Z</time>
      </trkpt>
      <trkpt lat="45.0927" lon="3.54695">
        <ele>629.32</ele>
        <time>2021-01-16T11:51:38Z</time>
      </trkpt>
      <trkpt lat="45.09264" lon="3.54699">
        <ele>629.32</ele>
        <time>2021-01-16T11:52:03Z</time>
      </trkpt>
      <trkpt lat="45.09271" lon="3.54692">
        <ele>629.8</ele>
        <time>2021-01-16T11:52:28Z</time>
      </trkpt>
      <trkpt lat="45.09272" lon="3.54694">
        <ele>630.76</ele>
        <time>2021-01-16T11:52:46Z</time>
      </trkpt>
      <trkpt lat="45.09303" lon="3.54683">
        <ele>632.2</ele>
        <time>2021-01-16T11:53:13Z</time>
      </trkpt>
      <trkpt lat="45.09294" lon="3.54686">
        <ele>633.17</ele>
        <time>2021-01-16T11:53:35Z</time>
      </trkpt>
      <trkpt lat="45.09283" lon="3.54689">
        <ele>631.72</ele>
        <time>2021-01-16T11:54:04Z</time>
      </trkpt>
      <trkpt lat="45.09275" lon="3.54691">
        <ele>631.72</ele>
        <time>2021-01-16T11:54:32Z</time>
      </trkpt>
      <trkpt lat="45.09273" lon="3.54691">
        <ele>631.24</ele>
        <time>2021-01-16T11:54:56Z</time>
      </trkpt>
      <trkpt lat="45.09272" lon="3.54691">
        <ele>631.72</ele>
        <time>2021-01-16T11:55:24Z</time>
      </trkpt>
      <trkpt lat="45.09272" lon="3.54692">
        <ele>631.24</ele>
        <time>2021-01-16T11:55:50Z</time>
      </trkpt>
      <trkpt lat="45.09271" lon="3.54692">
        <ele>631.24</ele>
        <time>2021-01-16T11:56:13Z</time>
      </trkpt>
      <trkpt lat="45.09268" lon="3.54692">
        <ele>630.76</ele>
        <time>2021-01-16T11:56:35Z</time>
      </trkpt>
      <trkpt lat="45.09268" lon="3.54693">
        <ele>630.76</ele>
        <time>2021-01-16T11:57:03Z</time>
      </trkpt>
      <trkpt lat="45.09268" lon="3.54693">
        <ele>630.76</ele>
        <time>2021-01-16T11:57:33Z</time>
      </trkpt>
      <trkpt lat="45.09266" lon="3.54694">
        <ele>630.28</ele>
        <time>2021-01-16T11:58:00Z</time>
      </trkpt>
      <trkpt lat="45.09268" lon="3.54691">
        <ele>631.24</ele>
        <time>2021-01-16T11:58:30Z</time>
      </trkpt>
      <trkpt lat="45.09265" lon="3.54692">
        <ele>630.76</ele>
        <time>2021-01-16T11:58:58Z</time>
      </trkpt>
      <trkpt lat="45.09269" lon="3.54692">
        <ele>632.2</ele>
        <time>2021-01-16T11:59:29Z</time>
      </trkpt>
      <trkpt lat="45.09275" lon="3.54699">
        <ele>635.09</ele>
        <time>2021-01-16T11:59:56Z</time>
      </trkpt>
      <trkpt lat="45.09267" lon="3.54698">
        <ele>636.05</ele>
        <time>2021-01-16T12:00:23Z</time>
      </trkpt>
      <trkpt lat="45.09267" lon="3.54696">
        <ele>634.61</ele>
        <time>2021-01-16T12:00:46Z</time>
      </trkpt>
      <trkpt lat="45.09264" lon="3.54695">
        <ele>633.65</ele>
        <time>2021-01-16T12:01:12Z</time>
      </trkpt>
      <trkpt lat="45.09269" lon="3.54697">
        <ele>634.13</ele>
        <time>2021-01-16T12:01:39Z</time>
      </trkpt>
      <trkpt lat="45.09269" lon="3.54695">
        <ele>634.13</ele>
        <time>2021-01-16T12:02:04Z</time>
      </trkpt>
      <trkpt lat="45.09267" lon="3.54694">
        <ele>635.09</ele>
        <time>2021-01-16T12:02:32Z</time>
      </trkpt>
      <trkpt lat="45.09266" lon="3.54695">
        <ele>636.05</ele>
        <time>2021-01-16T12:03:03Z</time>
      </trkpt>
      <trkpt lat="45.09269" lon="3.54695">
        <ele>636.05</ele>
        <time>2021-01-16T12:03:32Z</time>
      </trkpt>
      <trkpt lat="45.09269" lon="3.54694">
        <ele>635.57</ele>
        <time>2021-01-16T12:03:56Z</time>
      </trkpt>
      <trkpt lat="45.09267" lon="3.547">
        <ele>636.53</ele>
        <time>2021-01-16T12:04:17Z</time>
      </trkpt>
      <trkpt lat="45.09269" lon="3.54696">
        <ele>636.53</ele>
        <time>2021-01-16T12:04:40Z</time>
      </trkpt>
      <trkpt lat="45.0927" lon="3.54695">
        <ele>636.05</ele>
        <time>2021-01-16T12:05:09Z</time>
      </trkpt>
      <trkpt lat="45.09271" lon="3.54695">
        <ele>636.53</ele>
        <time>2021-01-16T12:05:33Z</time>
      </trkpt>
      <trkpt lat="45.09272" lon="3.54696">
        <ele>636.05</ele>
        <time>2021-01-16T12:05:55Z</time>
      </trkpt>
      <trkpt lat="45.09272" lon="3.54694">
        <ele>635.57</ele>
        <time>2021-01-16T12:06:17Z</time>
      </trkpt>
      <trkpt lat="45.09271" lon="3.54693">
        <ele>635.57</ele>
        <time>2021-01-16T12:06:41Z</time>
      </trkpt>
      <trkpt lat="45.09273" lon="3.54693">
        <ele>635.57</ele>
        <time>2021-01-16T12:07:04Z</time>
      </trkpt>
      <trkpt lat="45.09273" lon="3.5469">
        <ele>635.09</ele>
        <time>2021-01-16T12:07:17Z</time>
      </trkpt>
      <trkpt lat="45.09273" lon="3.54689">
        <ele>635.09</ele>
        <time>2021-01-16T12:07:38Z</time>
      </trkpt>
      <trkpt lat="45.09273" lon="3.54691">
        <ele>635.09</ele>
        <time>2021-01-16T12:07:58Z</time>
      </trkpt>
      <trkpt lat="45.09273" lon="3.54692">
        <ele>634.61</ele>
        <time>2021-01-16T12:08:17Z</time>
      </trkpt>
      <trkpt lat="45.09273" lon="3.54691">
        <ele>634.61</ele>
        <time>2021-01-16T12:08:36Z</time>
      </trkpt>
      <trkpt lat="45.09272" lon="3.54692">
        <ele>634.13</ele>
        <time>2021-01-16T12:08:59Z</time>
      </trkpt>
      <trkpt lat="45.09272" lon="3.54693">
        <ele>634.13</ele>
        <time>2021-01-16T12:09:11Z</time>
      </trkpt>
      <trkpt lat="45.09271" lon="3.54694">
        <ele>634.13</ele>
        <time>2021-01-16T12:09:32Z</time>
      </trkpt>
      <trkpt lat="45.09272" lon="3.54691">
        <ele>633.17</ele>
        <time>2021-01-16T12:09:47Z</time>
      </trkpt>
      <trkpt lat="45.09271" lon="3.54692">
        <ele>633.17</ele>
        <time>2021-01-16T12:10:05Z</time>
      </trkpt>
      <trkpt lat="45.09271" lon="3.54691">
        <ele>633.17</ele>
        <time>2021-01-16T12:10:26Z</time>
      </trkpt>
      <trkpt lat="45.09269" lon="3.54696">
        <ele>632.68</ele>
        <time>2021-01-16T12:10:41Z</time>
      </trkpt>
      <trkpt lat="45.09263" lon="3.54701">
        <ele>632.68</ele>
        <time>2021-01-16T12:10:49Z</time>
      </trkpt>
      <trkpt lat="45.09246" lon="3.54716">
        <ele>633.65</ele>
        <time>2021-01-16T12:11:08Z</time>
      </trkpt>
      <trkpt lat="45.09234" lon="3.54728">
        <ele>635.57</ele>
        <time>2021-01-16T12:11:23Z</time>
      </trkpt>
      <trkpt lat="45.09219" lon="3.54746">
        <ele>637.01</ele>
        <time>2021-01-16T12:11:40Z</time>
      </trkpt>
      <trkpt lat="45.09201" lon="3.54755">
        <ele>641.34</ele>
        <time>2021-01-16T12:11:55Z</time>
      </trkpt>
      <trkpt lat="45.09179" lon="3.54749">
        <ele>642.3</ele>
        <time>2021-01-16T12:12:13Z</time>
      </trkpt>
      <trkpt lat="45.09159" lon="3.54738">
        <ele>641.34</ele>
        <time>2021-01-16T12:12:30Z</time>
      </trkpt>
      <trkpt lat="45.09137" lon="3.54729">
        <ele>641.34</ele>
        <time>2021-01-16T12:12:48Z</time>
      </trkpt>
      <trkpt lat="45.09128" lon="3.54729">
        <ele>641.82</ele>
        <time>2021-01-16T12:12:56Z</time>
      </trkpt>
      <trkpt lat="45.09108" lon="3.54731">
        <ele>641.34</ele>
        <time>2021-01-16T12:13:12Z</time>
      </trkpt>
      <trkpt lat="45.0909" lon="3.54738">
        <ele>640.86</ele>
        <time>2021-01-16T12:13:27Z</time>
      </trkpt>
      <trkpt lat="45.09067" lon="3.54749">
        <ele>640.86</ele>
        <time>2021-01-16T12:13:47Z</time>
      </trkpt>
      <trkpt lat="45.09055" lon="3.54755">
        <ele>642.78</ele>
        <time>2021-01-16T12:13:59Z</time>
      </trkpt>
      <trkpt lat="45.0904" lon="3.5476">
        <ele>644.7</ele>
        <time>2021-01-16T12:14:13Z</time>
      </trkpt>
      <trkpt lat="45.09033" lon="3.54762">
        <ele>646.62</ele>
        <time>2021-01-16T12:14:20Z</time>
      </trkpt>
      <trkpt lat="45.09019" lon="3.54776">
        <ele>648.55</ele>
        <time>2021-01-16T12:14:37Z</time>
      </trkpt>
      <trkpt lat="45.09011" lon="3.54794">
        <ele>649.99</ele>
        <time>2021-01-16T12:14:52Z</time>
      </trkpt>
      <trkpt lat="45.09007" lon="3.54805">
        <ele>650.47</ele>
        <time>2021-01-16T12:14:59Z</time>
      </trkpt>
      <trkpt lat="45.08997" lon="3.54817">
        <ele>650.95</ele>
        <time>2021-01-16T12:15:11Z</time>
      </trkpt>
      <trkpt lat="45.08981" lon="3.54824">
        <ele>651.91</ele>
        <time>2021-01-16T12:15:26Z</time>
      </trkpt>
      <trkpt lat="45.08956" lon="3.54828">
        <ele>654.8</ele>
        <time>2021-01-16T12:15:43Z</time>
      </trkpt>
      <trkpt lat="45.08936" lon="3.54832">
        <ele>656.24</ele>
        <time>2021-01-16T12:15:59Z</time>
      </trkpt>
      <trkpt lat="45.08922" lon="3.54842">
        <ele>657.2</ele>
        <time>2021-01-16T12:16:12Z</time>
      </trkpt>
      <trkpt lat="45.08905" lon="3.54856">
        <ele>658.64</ele>
        <time>2021-01-16T12:16:29Z</time>
      </trkpt>
      <trkpt lat="45.08894" lon="3.54862">
        <ele>659.6</ele>
        <time>2021-01-16T12:16:38Z</time>
      </trkpt>
      <trkpt lat="45.08892" lon="3.54864">
        <ele>662.01</ele>
        <time>2021-01-16T12:16:50Z</time>
      </trkpt>
      <trkpt lat="45.08892" lon="3.54865">
        <ele>661.52</ele>
        <time>2021-01-16T12:16:55Z</time>
      </trkpt>
      <trkpt lat="45.08887" lon="3.54866">
        <ele>661.52</ele>
        <time>2021-01-16T12:17:00Z</time>
      </trkpt>
      <trkpt lat="45.08867" lon="3.54878">
        <ele>662.01</ele>
        <time>2021-01-16T12:17:16Z</time>
      </trkpt>
      <trkpt lat="45.08845" lon="3.5489">
        <ele>663.93</ele>
        <time>2021-01-16T12:17:34Z</time>
      </trkpt>
      <trkpt lat="45.08832" lon="3.54899">
        <ele>665.85</ele>
        <time>2021-01-16T12:17:49Z</time>
      </trkpt>
      <trkpt lat="45.08822" lon="3.54908">
        <ele>663.45</ele>
        <time>2021-01-16T12:18:02Z</time>
      </trkpt>
      <trkpt lat="45.08815" lon="3.54912">
        <ele>662.49</ele>
        <time>2021-01-16T12:18:08Z</time>
      </trkpt>
      <trkpt lat="45.08801" lon="3.54909">
        <ele>661.04</ele>
        <time>2021-01-16T12:18:23Z</time>
      </trkpt>
      <trkpt lat="45.08783" lon="3.54901">
        <ele>664.89</ele>
        <time>2021-01-16T12:18:38Z</time>
      </trkpt>
      <trkpt lat="45.08765" lon="3.54897">
        <ele>664.89</ele>
        <time>2021-01-16T12:18:54Z</time>
      </trkpt>
      <trkpt lat="45.08754" lon="3.549">
        <ele>665.37</ele>
        <time>2021-01-16T12:19:03Z</time>
      </trkpt>
      <trkpt lat="45.08734" lon="3.54902">
        <ele>667.77</ele>
        <time>2021-01-16T12:19:19Z</time>
      </trkpt>
      <trkpt lat="45.08718" lon="3.549">
        <ele>670.66</ele>
        <time>2021-01-16T12:19:32Z</time>
      </trkpt>
      <trkpt lat="45.08706" lon="3.54915">
        <ele>673.06</ele>
        <time>2021-01-16T12:19:47Z</time>
      </trkpt>
      <trkpt lat="45.08697" lon="3.5493">
        <ele>674.98</ele>
        <time>2021-01-16T12:20:02Z</time>
      </trkpt>
      <trkpt lat="45.08688" lon="3.5494">
        <ele>677.39</ele>
        <time>2021-01-16T12:20:18Z</time>
      </trkpt>
      <trkpt lat="45.08684" lon="3.54946">
        <ele>676.91</ele>
        <time>2021-01-16T12:20:32Z</time>
      </trkpt>
      <trkpt lat="45.087" lon="3.54927">
        <ele>674.98</ele>
        <time>2021-01-16T12:20:47Z</time>
      </trkpt>
      <trkpt lat="45.08702" lon="3.54925">
        <ele>674.5</ele>
        <time>2021-01-16T12:20:49Z</time>
      </trkpt>
      <trkpt lat="45.08711" lon="3.54903">
        <ele>673.06</ele>
        <time>2021-01-16T12:21:01Z</time>
      </trkpt>
      <trkpt lat="45.08711" lon="3.54896">
        <ele>674.02</ele>
        <time>2021-01-16T12:21:15Z</time>
      </trkpt>
      <trkpt lat="45.087" lon="3.54872">
        <ele>673.06</ele>
        <time>2021-01-16T12:21:30Z</time>
      </trkpt>
      <trkpt lat="45.08696" lon="3.5486">
        <ele>671.62</ele>
        <time>2021-01-16T12:21:41Z</time>
      </trkpt>
      <trkpt lat="45.08687" lon="3.54837">
        <ele>670.66</ele>
        <time>2021-01-16T12:21:57Z</time>
      </trkpt>
      <trkpt lat="45.08679" lon="3.54813">
        <ele>671.14</ele>
        <time>2021-01-16T12:22:12Z</time>
      </trkpt>
      <trkpt lat="45.08669" lon="3.54789">
        <ele>671.14</ele>
        <time>2021-01-16T12:22:27Z</time>
      </trkpt>
      <trkpt lat="45.08657" lon="3.54766">
        <ele>669.7</ele>
        <time>2021-01-16T12:22:42Z</time>
      </trkpt>
      <trkpt lat="45.08644" lon="3.54746">
        <ele>669.7</ele>
        <time>2021-01-16T12:22:57Z</time>
      </trkpt>
      <trkpt lat="45.08629" lon="3.54731">
        <ele>670.66</ele>
        <time>2021-01-16T12:23:12Z</time>
      </trkpt>
      <trkpt lat="45.0861" lon="3.54715">
        <ele>671.14</ele>
        <time>2021-01-16T12:23:29Z</time>
      </trkpt>
      <trkpt lat="45.08591" lon="3.54701">
        <ele>672.1</ele>
        <time>2021-01-16T12:23:46Z</time>
      </trkpt>
      <trkpt lat="45.0859" lon="3.547">
        <ele>672.1</ele>
        <time>2021-01-16T12:23:47Z</time>
      </trkpt>
      <trkpt lat="45.08578" lon="3.54679">
        <ele>672.1</ele>
        <time>2021-01-16T12:24:02Z</time>
      </trkpt>
      <trkpt lat="45.08576" lon="3.54675">
        <ele>672.58</ele>
        <time>2021-01-16T12:24:05Z</time>
      </trkpt>
      <trkpt lat="45.08572" lon="3.54649">
        <ele>674.5</ele>
        <time>2021-01-16T12:24:21Z</time>
      </trkpt>
      <trkpt lat="45.08572" lon="3.54644">
        <ele>674.98</ele>
        <time>2021-01-16T12:24:24Z</time>
      </trkpt>
      <trkpt lat="45.08576" lon="3.54617">
        <ele>675.46</ele>
        <time>2021-01-16T12:24:40Z</time>
      </trkpt>
      <trkpt lat="45.08577" lon="3.54615">
        <ele>675.46</ele>
        <time>2021-01-16T12:24:42Z</time>
      </trkpt>
      <trkpt lat="45.08582" lon="3.54592">
        <ele>677.39</ele>
        <time>2021-01-16T12:24:57Z</time>
      </trkpt>
      <trkpt lat="45.08588" lon="3.5457">
        <ele>678.83</ele>
        <time>2021-01-16T12:25:12Z</time>
      </trkpt>
      <trkpt lat="45.0859" lon="3.5456">
        <ele>679.31</ele>
        <time>2021-01-16T12:25:19Z</time>
      </trkpt>
      <trkpt lat="45.08592" lon="3.54544">
        <ele>679.79</ele>
        <time>2021-01-16T12:25:29Z</time>
      </trkpt>
      <trkpt lat="45.08593" lon="3.54518">
        <ele>682.19</ele>
        <time>2021-01-16T12:25:44Z</time>
      </trkpt>
      <trkpt lat="45.08585" lon="3.545">
        <ele>685.56</ele>
        <time>2021-01-16T12:25:59Z</time>
      </trkpt>
      <trkpt lat="45.08571" lon="3.54484">
        <ele>689.4</ele>
        <time>2021-01-16T12:26:15Z</time>
      </trkpt>
      <trkpt lat="45.08554" lon="3.54472">
        <ele>692.29</ele>
        <time>2021-01-16T12:26:31Z</time>
      </trkpt>
      <trkpt lat="45.08539" lon="3.54462">
        <ele>693.73</ele>
        <time>2021-01-16T12:26:47Z</time>
      </trkpt>
      <trkpt lat="45.08534" lon="3.54461">
        <ele>694.69</ele>
        <time>2021-01-16T12:26:59Z</time>
      </trkpt>
      <trkpt lat="45.08522" lon="3.54454">
        <ele>695.65</ele>
        <time>2021-01-16T12:27:13Z</time>
      </trkpt>
      <trkpt lat="45.08517" lon="3.54451">
        <ele>696.13</ele>
        <time>2021-01-16T12:27:25Z</time>
      </trkpt>
      <trkpt lat="45.08522" lon="3.54454">
        <ele>695.17</ele>
        <time>2021-01-16T12:27:36Z</time>
      </trkpt>
      <trkpt lat="45.08531" lon="3.54457">
        <ele>695.17</ele>
        <time>2021-01-16T12:27:50Z</time>
      </trkpt>
      <trkpt lat="45.08529" lon="3.54456">
        <ele>695.17</ele>
        <time>2021-01-16T12:28:08Z</time>
      </trkpt>
      <trkpt lat="45.08528" lon="3.54456">
        <ele>695.17</ele>
        <time>2021-01-16T12:28:24Z</time>
      </trkpt>
      <trkpt lat="45.08514" lon="3.5445">
        <ele>695.65</ele>
        <time>2021-01-16T12:28:38Z</time>
      </trkpt>
      <trkpt lat="45.08496" lon="3.54442">
        <ele>696.13</ele>
        <time>2021-01-16T12:28:54Z</time>
      </trkpt>
      <trkpt lat="45.08479" lon="3.54431">
        <ele>697.57</ele>
        <time>2021-01-16T12:29:10Z</time>
      </trkpt>
      <trkpt lat="45.08463" lon="3.5442">
        <ele>697.09</ele>
        <time>2021-01-16T12:29:25Z</time>
      </trkpt>
      <trkpt lat="45.08445" lon="3.54405">
        <ele>695.65</ele>
        <time>2021-01-16T12:29:42Z</time>
      </trkpt>
      <trkpt lat="45.08427" lon="3.54395">
        <ele>694.21</ele>
        <time>2021-01-16T12:29:58Z</time>
      </trkpt>
      <trkpt lat="45.08421" lon="3.544">
        <ele>694.69</ele>
        <time>2021-01-16T12:30:07Z</time>
      </trkpt>
      <trkpt lat="45.08411" lon="3.54422">
        <ele>698.53</ele>
        <time>2021-01-16T12:30:25Z</time>
      </trkpt>
      <trkpt lat="45.08411" lon="3.54424">
        <ele>698.53</ele>
        <time>2021-01-16T12:30:26Z</time>
      </trkpt>
      <trkpt lat="45.08415" lon="3.54442">
        <ele>701.9</ele>
        <time>2021-01-16T12:30:39Z</time>
      </trkpt>
      <trkpt lat="45.08423" lon="3.54459">
        <ele>704.78</ele>
        <time>2021-01-16T12:30:54Z</time>
      </trkpt>
      <trkpt lat="45.08429" lon="3.54479">
        <ele>708.15</ele>
        <time>2021-01-16T12:31:09Z</time>
      </trkpt>
      <trkpt lat="45.08427" lon="3.54493">
        <ele>711.03</ele>
        <time>2021-01-16T12:31:19Z</time>
      </trkpt>
      <trkpt lat="45.08421" lon="3.54515">
        <ele>712.95</ele>
        <time>2021-01-16T12:31:34Z</time>
      </trkpt>
      <trkpt lat="45.08418" lon="3.54534">
        <ele>713.92</ele>
        <time>2021-01-16T12:31:49Z</time>
      </trkpt>
      <trkpt lat="45.08412" lon="3.54542">
        <ele>713.44</ele>
        <time>2021-01-16T12:31:57Z</time>
      </trkpt>
      <trkpt lat="45.08396" lon="3.54543">
        <ele>715.84</ele>
        <time>2021-01-16T12:32:12Z</time>
      </trkpt>
      <trkpt lat="45.08382" lon="3.54542">
        <ele>718.72</ele>
        <time>2021-01-16T12:32:27Z</time>
      </trkpt>
      <trkpt lat="45.08365" lon="3.54539">
        <ele>721.13</ele>
        <time>2021-01-16T12:32:45Z</time>
      </trkpt>
      <trkpt lat="45.08344" lon="3.54539">
        <ele>723.53</ele>
        <time>2021-01-16T12:33:06Z</time>
      </trkpt>
      <trkpt lat="45.08335" lon="3.5455">
        <ele>727.37</ele>
        <time>2021-01-16T12:33:19Z</time>
      </trkpt>
      <trkpt lat="45.0833" lon="3.54557">
        <ele>729.3</ele>
        <time>2021-01-16T12:33:26Z</time>
      </trkpt>
      <trkpt lat="45.08325" lon="3.54574">
        <ele>728.82</ele>
        <time>2021-01-16T12:33:41Z</time>
      </trkpt>
      <trkpt lat="45.08313" lon="3.54592">
        <ele>730.26</ele>
        <time>2021-01-16T12:33:56Z</time>
      </trkpt>
      <trkpt lat="45.08303" lon="3.54603">
        <ele>730.74</ele>
        <time>2021-01-16T12:34:09Z</time>
      </trkpt>
      <trkpt lat="45.08297" lon="3.54616">
        <ele>734.1</ele>
        <time>2021-01-16T12:34:23Z</time>
      </trkpt>
      <trkpt lat="45.08294" lon="3.54619">
        <ele>735.55</ele>
        <time>2021-01-16T12:34:41Z</time>
      </trkpt>
      <trkpt lat="45.08283" lon="3.54637">
        <ele>736.99</ele>
        <time>2021-01-16T12:34:58Z</time>
      </trkpt>
      <trkpt lat="45.08282" lon="3.54639">
        <ele>737.47</ele>
        <time>2021-01-16T12:35:00Z</time>
      </trkpt>
      <trkpt lat="45.08281" lon="3.54642">
        <ele>737.47</ele>
        <time>2021-01-16T12:35:02Z</time>
      </trkpt>
      <trkpt lat="45.08276" lon="3.5465">
        <ele>736.99</ele>
        <time>2021-01-16T12:35:08Z</time>
      </trkpt>
      <trkpt lat="45.08268" lon="3.54672">
        <ele>737.95</ele>
        <time>2021-01-16T12:35:23Z</time>
      </trkpt>
      <trkpt lat="45.08261" lon="3.54695">
        <ele>740.35</ele>
        <time>2021-01-16T12:35:38Z</time>
      </trkpt>
      <trkpt lat="45.08257" lon="3.54714">
        <ele>740.83</ele>
        <time>2021-01-16T12:35:49Z</time>
      </trkpt>
      <trkpt lat="45.08255" lon="3.54734">
        <ele>741.79</ele>
        <time>2021-01-16T12:36:03Z</time>
      </trkpt>
      <trkpt lat="45.08259" lon="3.54751">
        <ele>740.83</ele>
        <time>2021-01-16T12:36:14Z</time>
      </trkpt>
      <trkpt lat="45.0826" lon="3.5477">
        <ele>741.31</ele>
        <time>2021-01-16T12:36:23Z</time>
      </trkpt>
      <trkpt lat="45.08263" lon="3.54779">
        <ele>741.31</ele>
        <time>2021-01-16T12:36:30Z</time>
      </trkpt>
      <trkpt lat="45.08266" lon="3.54785">
        <ele>741.31</ele>
        <time>2021-01-16T12:36:34Z</time>
      </trkpt>
      <trkpt lat="45.08273" lon="3.54807">
        <ele>743.24</ele>
        <time>2021-01-16T12:36:46Z</time>
      </trkpt>
      <trkpt lat="45.08276" lon="3.54827">
        <ele>744.68</ele>
        <time>2021-01-16T12:37:01Z</time>
      </trkpt>
      <trkpt lat="45.08279" lon="3.54848">
        <ele>746.12</ele>
        <time>2021-01-16T12:37:14Z</time>
      </trkpt>
      <trkpt lat="45.08279" lon="3.54857">
        <ele>746.6</ele>
        <time>2021-01-16T12:37:19Z</time>
      </trkpt>
      <trkpt lat="45.08285" lon="3.54875">
        <ele>746.6</ele>
        <time>2021-01-16T12:37:33Z</time>
      </trkpt>
      <trkpt lat="45.08286" lon="3.54877">
        <ele>746.6</ele>
        <time>2021-01-16T12:37:35Z</time>
      </trkpt>
      <trkpt lat="45.08296" lon="3.54894">
        <ele>747.56</ele>
        <time>2021-01-16T12:37:49Z</time>
      </trkpt>
      <trkpt lat="45.08297" lon="3.54897">
        <ele>748.04</ele>
        <time>2021-01-16T12:37:51Z</time>
      </trkpt>
      <trkpt lat="45.08297" lon="3.54914">
        <ele>749.97</ele>
        <time>2021-01-16T12:38:04Z</time>
      </trkpt>
      <trkpt lat="45.08293" lon="3.5492">
        <ele>749.97</ele>
        <time>2021-01-16T12:38:21Z</time>
      </trkpt>
      <trkpt lat="45.0829" lon="3.54924">
        <ele>749</ele>
        <time>2021-01-16T12:38:26Z</time>
      </trkpt>
      <trkpt lat="45.08278" lon="3.54941">
        <ele>748.52</ele>
        <time>2021-01-16T12:38:41Z</time>
      </trkpt>
      <trkpt lat="45.08277" lon="3.54943">
        <ele>748.52</ele>
        <time>2021-01-16T12:38:42Z</time>
      </trkpt>
      <trkpt lat="45.08275" lon="3.54966">
        <ele>751.89</ele>
        <time>2021-01-16T12:38:57Z</time>
      </trkpt>
      <trkpt lat="45.08278" lon="3.54983">
        <ele>752.37</ele>
        <time>2021-01-16T12:39:12Z</time>
      </trkpt>
      <trkpt lat="45.08278" lon="3.54993">
        <ele>755.73</ele>
        <time>2021-01-16T12:39:31Z</time>
      </trkpt>
      <trkpt lat="45.08278" lon="3.55">
        <ele>757.18</ele>
        <time>2021-01-16T12:39:45Z</time>
      </trkpt>
      <trkpt lat="45.08269" lon="3.55026">
        <ele>759.58</ele>
        <time>2021-01-16T12:40:02Z</time>
      </trkpt>
      <trkpt lat="45.08262" lon="3.5504">
        <ele>761.98</ele>
        <time>2021-01-16T12:40:18Z</time>
      </trkpt>
      <trkpt lat="45.08251" lon="3.55039">
        <ele>763.9</ele>
        <time>2021-01-16T12:40:32Z</time>
      </trkpt>
      <trkpt lat="45.0825" lon="3.55037">
        <ele>764.39</ele>
        <time>2021-01-16T12:40:53Z</time>
      </trkpt>
      <trkpt lat="45.08244" lon="3.5504">
        <ele>762.46</ele>
        <time>2021-01-16T12:41:03Z</time>
      </trkpt>
      <trkpt lat="45.08234" lon="3.5504">
        <ele>760.54</ele>
        <time>2021-01-16T12:41:08Z</time>
      </trkpt>
      <trkpt lat="45.0822" lon="3.5504">
        <ele>759.1</ele>
        <time>2021-01-16T12:41:17Z</time>
      </trkpt>
      <trkpt lat="45.08215" lon="3.55037">
        <ele>758.62</ele>
        <time>2021-01-16T12:41:20Z</time>
      </trkpt>
      <trkpt lat="45.08203" lon="3.55039">
        <ele>756.69</ele>
        <time>2021-01-16T12:41:33Z</time>
      </trkpt>
      <trkpt lat="45.08187" lon="3.55046">
        <ele>754.77</ele>
        <time>2021-01-16T12:41:45Z</time>
      </trkpt>
      <trkpt lat="45.08178" lon="3.55048">
        <ele>752.85</ele>
        <time>2021-01-16T12:41:58Z</time>
      </trkpt>
      <trkpt lat="45.08161" lon="3.55053">
        <ele>751.41</ele>
        <time>2021-01-16T12:42:12Z</time>
      </trkpt>
      <trkpt lat="45.0816" lon="3.55053">
        <ele>751.41</ele>
        <time>2021-01-16T12:42:13Z</time>
      </trkpt>
      <trkpt lat="45.08145" lon="3.5506">
        <ele>749.97</ele>
        <time>2021-01-16T12:42:28Z</time>
      </trkpt>
      <trkpt lat="45.08133" lon="3.55072">
        <ele>748.04</ele>
        <time>2021-01-16T12:42:41Z</time>
      </trkpt>
      <trkpt lat="45.08128" lon="3.5508">
        <ele>743.72</ele>
        <time>2021-01-16T12:42:55Z</time>
      </trkpt>
      <trkpt lat="45.08119" lon="3.55089">
        <ele>742.28</ele>
        <time>2021-01-16T12:43:09Z</time>
      </trkpt>
      <trkpt lat="45.08114" lon="3.55093">
        <ele>741.79</ele>
        <time>2021-01-16T12:43:13Z</time>
      </trkpt>
      <trkpt lat="45.08107" lon="3.55102">
        <ele>740.35</ele>
        <time>2021-01-16T12:43:27Z</time>
      </trkpt>
      <trkpt lat="45.08099" lon="3.55111">
        <ele>739.39</ele>
        <time>2021-01-16T12:43:35Z</time>
      </trkpt>
      <trkpt lat="45.08094" lon="3.55119">
        <ele>738.43</ele>
        <time>2021-01-16T12:43:40Z</time>
      </trkpt>
      <trkpt lat="45.08082" lon="3.55134">
        <ele>735.07</ele>
        <time>2021-01-16T12:43:54Z</time>
      </trkpt>
      <trkpt lat="45.08065" lon="3.55151">
        <ele>732.18</ele>
        <time>2021-01-16T12:44:09Z</time>
      </trkpt>
      <trkpt lat="45.08056" lon="3.55158">
        <ele>730.26</ele>
        <time>2021-01-16T12:44:23Z</time>
      </trkpt>
      <trkpt lat="45.08051" lon="3.55159">
        <ele>729.78</ele>
        <time>2021-01-16T12:44:28Z</time>
      </trkpt>
      <trkpt lat="45.08045" lon="3.55161">
        <ele>729.3</ele>
        <time>2021-01-16T12:44:32Z</time>
      </trkpt>
      <trkpt lat="45.08038" lon="3.55163">
        <ele>728.82</ele>
        <time>2021-01-16T12:44:38Z</time>
      </trkpt>
      <trkpt lat="45.08026" lon="3.55166">
        <ele>726.89</ele>
        <time>2021-01-16T12:44:49Z</time>
      </trkpt>
      <trkpt lat="45.08012" lon="3.55165">
        <ele>724.01</ele>
        <time>2021-01-16T12:45:03Z</time>
      </trkpt>
      <trkpt lat="45.08007" lon="3.55166">
        <ele>721.61</ele>
        <time>2021-01-16T12:45:33Z</time>
      </trkpt>
      <trkpt lat="45.08004" lon="3.55164">
        <ele>721.61</ele>
        <time>2021-01-16T12:45:51Z</time>
      </trkpt>
      <trkpt lat="45.07985" lon="3.55164">
        <ele>716.8</ele>
        <time>2021-01-16T12:46:13Z</time>
      </trkpt>
      <trkpt lat="45.07967" lon="3.55159">
        <ele>711.03</ele>
        <time>2021-01-16T12:46:33Z</time>
      </trkpt>
      <trkpt lat="45.0795" lon="3.55151">
        <ele>699.98</ele>
        <time>2021-01-16T12:46:54Z</time>
      </trkpt>
      <trkpt lat="45.07941" lon="3.55144">
        <ele>696.61</ele>
        <time>2021-01-16T12:47:18Z</time>
      </trkpt>
      <trkpt lat="45.07919" lon="3.55129">
        <ele>687</ele>
        <time>2021-01-16T12:47:40Z</time>
      </trkpt>
      <trkpt lat="45.07895" lon="3.55109">
        <ele>681.23</ele>
        <time>2021-01-16T12:48:02Z</time>
      </trkpt>
      <trkpt lat="45.07876" lon="3.5508">
        <ele>673.54</ele>
        <time>2021-01-16T12:48:23Z</time>
      </trkpt>
      <trkpt lat="45.07872" lon="3.5507">
        <ele>674.98</ele>
        <time>2021-01-16T12:48:44Z</time>
      </trkpt>
      <trkpt lat="45.07863" lon="3.55056">
        <ele>672.1</ele>
        <time>2021-01-16T12:49:04Z</time>
      </trkpt>
      <trkpt lat="45.07859" lon="3.55049">
        <ele>670.66</ele>
        <time>2021-01-16T12:49:14Z</time>
      </trkpt>
      <trkpt lat="45.07842" lon="3.55026">
        <ele>668.73</ele>
        <time>2021-01-16T12:49:35Z</time>
      </trkpt>
      <trkpt lat="45.07835" lon="3.5502">
        <ele>668.73</ele>
        <time>2021-01-16T12:49:52Z</time>
      </trkpt>
      <trkpt lat="45.07831" lon="3.55018">
        <ele>667.77</ele>
        <time>2021-01-16T12:49:56Z</time>
      </trkpt>
      <trkpt lat="45.07813" lon="3.55004">
        <ele>665.85</ele>
        <time>2021-01-16T12:50:10Z</time>
      </trkpt>
      <trkpt lat="45.07806" lon="3.54997">
        <ele>665.37</ele>
        <time>2021-01-16T12:50:26Z</time>
      </trkpt>
      <trkpt lat="45.07794" lon="3.54995">
        <ele>662.01</ele>
        <time>2021-01-16T12:50:45Z</time>
      </trkpt>
      <trkpt lat="45.07781" lon="3.54989">
        <ele>660.08</ele>
        <time>2021-01-16T12:51:00Z</time>
      </trkpt>
      <trkpt lat="45.07767" lon="3.54984">
        <ele>654.8</ele>
        <time>2021-01-16T12:51:15Z</time>
      </trkpt>
      <trkpt lat="45.07752" lon="3.54981">
        <ele>651.91</ele>
        <time>2021-01-16T12:51:29Z</time>
      </trkpt>
      <trkpt lat="45.07739" lon="3.54975">
        <ele>649.51</ele>
        <time>2021-01-16T12:51:46Z</time>
      </trkpt>
      <trkpt lat="45.07731" lon="3.54971">
        <ele>648.55</ele>
        <time>2021-01-16T12:51:59Z</time>
      </trkpt>
      <trkpt lat="45.07717" lon="3.54963">
        <ele>645.66</ele>
        <time>2021-01-16T12:52:15Z</time>
      </trkpt>
      <trkpt lat="45.07699" lon="3.54959">
        <ele>642.78</ele>
        <time>2021-01-16T12:52:28Z</time>
      </trkpt>
      <trkpt lat="45.07679" lon="3.5495">
        <ele>639.41</ele>
        <time>2021-01-16T12:52:44Z</time>
      </trkpt>
      <trkpt lat="45.07663" lon="3.54944">
        <ele>634.61</ele>
        <time>2021-01-16T12:53:02Z</time>
      </trkpt>
      <trkpt lat="45.07644" lon="3.54933">
        <ele>628.36</ele>
        <time>2021-01-16T12:53:19Z</time>
      </trkpt>
      <trkpt lat="45.07633" lon="3.54925">
        <ele>624.99</ele>
        <time>2021-01-16T12:53:31Z</time>
      </trkpt>
      <trkpt lat="45.07621" lon="3.54914">
        <ele>622.11</ele>
        <time>2021-01-16T12:53:46Z</time>
      </trkpt>
      <trkpt lat="45.07616" lon="3.54906">
        <ele>618.26</ele>
        <time>2021-01-16T12:53:57Z</time>
      </trkpt>
      <trkpt lat="45.07609" lon="3.54896">
        <ele>617.3</ele>
        <time>2021-01-16T12:54:11Z</time>
      </trkpt>
      <trkpt lat="45.07609" lon="3.54897">
        <ele>616.34</ele>
        <time>2021-01-16T12:54:25Z</time>
      </trkpt>
      <trkpt lat="45.07609" lon="3.54898">
        <ele>615.86</ele>
        <time>2021-01-16T12:54:40Z</time>
      </trkpt>
      <trkpt lat="45.07607" lon="3.54898">
        <ele>616.34</ele>
        <time>2021-01-16T12:54:51Z</time>
      </trkpt>
      <trkpt lat="45.07593" lon="3.54905">
        <ele>613.46</ele>
        <time>2021-01-16T12:55:06Z</time>
      </trkpt>
      <trkpt lat="45.07589" lon="3.54906">
        <ele>612.98</ele>
        <time>2021-01-16T12:55:21Z</time>
      </trkpt>
      <trkpt lat="45.07577" lon="3.54914">
        <ele>612.02</ele>
        <time>2021-01-16T12:55:38Z</time>
      </trkpt>
      <trkpt lat="45.07569" lon="3.54921">
        <ele>610.09</ele>
        <time>2021-01-16T12:55:50Z</time>
      </trkpt>
      <trkpt lat="45.07566" lon="3.54924">
        <ele>610.09</ele>
        <time>2021-01-16T12:55:53Z</time>
      </trkpt>
      <trkpt lat="45.07548" lon="3.54918">
        <ele>607.21</ele>
        <time>2021-01-16T12:56:09Z</time>
      </trkpt>
      <trkpt lat="45.07537" lon="3.54895">
        <ele>604.81</ele>
        <time>2021-01-16T12:56:25Z</time>
      </trkpt>
      <trkpt lat="45.07529" lon="3.54882">
        <ele>604.81</ele>
        <time>2021-01-16T12:56:38Z</time>
      </trkpt>
      <trkpt lat="45.07517" lon="3.54867">
        <ele>603.85</ele>
        <time>2021-01-16T12:56:53Z</time>
      </trkpt>
      <trkpt lat="45.07501" lon="3.54854">
        <ele>603.36</ele>
        <time>2021-01-16T12:57:09Z</time>
      </trkpt>
      <trkpt lat="45.07486" lon="3.54843">
        <ele>603.36</ele>
        <time>2021-01-16T12:57:23Z</time>
      </trkpt>
      <trkpt lat="45.07473" lon="3.54838">
        <ele>603.36</ele>
        <time>2021-01-16T12:57:38Z</time>
      </trkpt>
      <trkpt lat="45.07455" lon="3.54837">
        <ele>602.4</ele>
        <time>2021-01-16T12:57:54Z</time>
      </trkpt>
      <trkpt lat="45.07439" lon="3.54841">
        <ele>602.88</ele>
        <time>2021-01-16T12:58:09Z</time>
      </trkpt>
      <trkpt lat="45.07427" lon="3.54847">
        <ele>602.88</ele>
        <time>2021-01-16T12:58:21Z</time>
      </trkpt>
      <trkpt lat="45.0741" lon="3.54852">
        <ele>603.85</ele>
        <time>2021-01-16T12:58:36Z</time>
      </trkpt>
      <trkpt lat="45.07394" lon="3.54858">
        <ele>604.33</ele>
        <time>2021-01-16T12:58:51Z</time>
      </trkpt>
      <trkpt lat="45.07389" lon="3.5486">
        <ele>603.85</ele>
        <time>2021-01-16T12:59:05Z</time>
      </trkpt>
      <trkpt lat="45.07385" lon="3.54861">
        <ele>603.85</ele>
        <time>2021-01-16T12:59:20Z</time>
      </trkpt>
      <trkpt lat="45.07386" lon="3.54861">
        <ele>603.36</ele>
        <time>2021-01-16T12:59:37Z</time>
      </trkpt>
      <trkpt lat="45.07386" lon="3.54862">
        <ele>604.33</ele>
        <time>2021-01-16T13:00:09Z</time>
      </trkpt>
      <trkpt lat="45.07386" lon="3.54862">
        <ele>604.81</ele>
        <time>2021-01-16T13:00:28Z</time>
      </trkpt>
      <trkpt lat="45.07386" lon="3.54861">
        <ele>605.29</ele>
        <time>2021-01-16T13:00:57Z</time>
      </trkpt>
      <trkpt lat="45.07385" lon="3.54863">
        <ele>604.81</ele>
        <time>2021-01-16T13:01:19Z</time>
      </trkpt>
      <trkpt lat="45.0738" lon="3.54864">
        <ele>603.85</ele>
        <time>2021-01-16T13:01:43Z</time>
      </trkpt>
      <trkpt lat="45.07379" lon="3.54864">
        <ele>603.85</ele>
        <time>2021-01-16T13:01:44Z</time>
      </trkpt>
      <trkpt lat="45.07367" lon="3.54869">
        <ele>601.92</ele>
        <time>2021-01-16T13:01:58Z</time>
      </trkpt>
      <trkpt lat="45.07356" lon="3.54872">
        <ele>601.92</ele>
        <time>2021-01-16T13:02:08Z</time>
      </trkpt>
      <trkpt lat="45.07341" lon="3.54876">
        <ele>601.44</ele>
        <time>2021-01-16T13:02:24Z</time>
      </trkpt>
      <trkpt lat="45.07326" lon="3.5488">
        <ele>600</ele>
        <time>2021-01-16T13:02:38Z</time>
      </trkpt>
      <trkpt lat="45.07322" lon="3.54883">
        <ele>599.52</ele>
        <time>2021-01-16T13:02:42Z</time>
      </trkpt>
      <trkpt lat="45.07316" lon="3.54883">
        <ele>600</ele>
        <time>2021-01-16T13:02:54Z</time>
      </trkpt>
      <trkpt lat="45.07316" lon="3.54883">
        <ele>600</ele>
        <time>2021-01-16T13:03:17Z</time>
      </trkpt>
      <trkpt lat="45.07315" lon="3.54883">
        <ele>598.08</ele>
        <time>2021-01-16T13:03:39Z</time>
      </trkpt>
      <trkpt lat="45.07306" lon="3.54882">
        <ele>597.12</ele>
        <time>2021-01-16T13:03:54Z</time>
      </trkpt>
      <trkpt lat="45.07288" lon="3.54878">
        <ele>596.15</ele>
        <time>2021-01-16T13:04:09Z</time>
      </trkpt>
      <trkpt lat="45.07272" lon="3.54877">
        <ele>595.19</ele>
        <time>2021-01-16T13:04:25Z</time>
      </trkpt>
      <trkpt lat="45.0726" lon="3.54878">
        <ele>593.75</ele>
        <time>2021-01-16T13:04:39Z</time>
      </trkpt>
      <trkpt lat="45.07252" lon="3.54879">
        <ele>592.79</ele>
        <time>2021-01-16T13:04:54Z</time>
      </trkpt>
      <trkpt lat="45.07242" lon="3.54881">
        <ele>591.83</ele>
        <time>2021-01-16T13:05:10Z</time>
      </trkpt>
      <trkpt lat="45.07242" lon="3.5488">
        <ele>591.83</ele>
        <time>2021-01-16T13:05:32Z</time>
      </trkpt>
      <trkpt lat="45.07242" lon="3.5488">
        <ele>591.35</ele>
        <time>2021-01-16T13:06:00Z</time>
      </trkpt>
      <trkpt lat="45.07242" lon="3.54881">
        <ele>591.83</ele>
        <time>2021-01-16T13:06:18Z</time>
      </trkpt>
      <trkpt lat="45.07242" lon="3.5488">
        <ele>591.83</ele>
        <time>2021-01-16T13:06:43Z</time>
      </trkpt>
      <trkpt lat="45.07242" lon="3.54881">
        <ele>591.35</ele>
        <time>2021-01-16T13:07:09Z</time>
      </trkpt>
      <trkpt lat="45.07242" lon="3.54881">
        <ele>591.35</ele>
        <time>2021-01-16T13:07:27Z</time>
      </trkpt>
      <trkpt lat="45.07242" lon="3.54881">
        <ele>591.35</ele>
        <time>2021-01-16T13:07:56Z</time>
      </trkpt>
      <trkpt lat="45.07239" lon="3.54887">
        <ele>591.83</ele>
        <time>2021-01-16T13:08:00Z</time>
      </trkpt>
      <trkpt lat="45.07235" lon="3.54887">
        <ele>583.6</ele>
      </trkpt>
      <trkpt lat="45.07235" lon="3.54878">
        <ele>583</ele>
      </trkpt>
      <trkpt lat="45.0723" lon="3.54878">
        <ele>582</ele>
      </trkpt>
      <trkpt lat="45.07223" lon="3.54876">
        <ele>580.8</ele>
      </trkpt>
      <trkpt lat="45.07217" lon="3.54872">
        <ele>579.3</ele>
      </trkpt>
      <trkpt lat="45.07213" lon="3.54865">
        <ele>578.1</ele>
      </trkpt>
      <trkpt lat="45.07211" lon="3.54854">
        <ele>576.9</ele>
      </trkpt>
      <trkpt lat="45.07209" lon="3.54837">
        <ele>575.4</ele>
      </trkpt>
      <trkpt lat="45.07209" lon="3.54815">
        <ele>574.4</ele>
      </trkpt>
      <trkpt lat="45.07209" lon="3.54798">
        <ele>573.8</ele>
      </trkpt>
      <trkpt lat="45.07208" lon="3.54787">
        <ele>573.3</ele>
      </trkpt>
      <trkpt lat="45.07207" lon="3.54777">
        <ele>572.8</ele>
      </trkpt>
      <trkpt lat="45.07205" lon="3.54771">
        <ele>572.1</ele>
      </trkpt>
      <trkpt lat="45.07201" lon="3.54765">
        <ele>571.1</ele>
      </trkpt>
      <trkpt lat="45.07195" lon="3.54762">
        <ele>570</ele>
      </trkpt>
      <trkpt lat="45.07189" lon="3.54762">
        <ele>568.7</ele>
      </trkpt>
      <trkpt lat="45.07183" lon="3.54766">
        <ele>567.7</ele>
      </trkpt>
      <trkpt lat="45.07178" lon="3.54772">
        <ele>566.9</ele>
      </trkpt>
      <trkpt lat="45.07168" lon="3.54794">
        <ele>565.8</ele>
      </trkpt>
      <trkpt lat="45.07158" lon="3.54818">
        <ele>563.2</ele>
      </trkpt>
      <trkpt lat="45.07149" lon="3.54837">
        <ele>560.8</ele>
      </trkpt>
      <trkpt lat="45.07143" lon="3.54849">
        <ele>559.7</ele>
      </trkpt>
      <trkpt lat="45.0714" lon="3.54856">
        <ele>559.2</ele>
      </trkpt>
      <trkpt lat="45.07138" lon="3.54866">
        <ele>559.1</ele>
      </trkpt>
      <trkpt lat="45.07138" lon="3.5488">
        <ele>560.2</ele>
      </trkpt>
      <trkpt lat="45.07138" lon="3.54896">
        <ele>561.3</ele>
      </trkpt>
      <trkpt lat="45.07137" lon="3.54913">
        <ele>561.9</ele>
      </trkpt>
      <trkpt lat="45.07135" lon="3.54928">
        <ele>562.5</ele>
      </trkpt>
      <trkpt lat="45.0713" lon="3.54946">
        <ele>562.6</ele>
      </trkpt>
      <trkpt lat="45.07123" lon="3.54962">
        <ele>561.9</ele>
      </trkpt>
      <trkpt lat="45.07114" lon="3.54977">
        <ele>560.4</ele>
      </trkpt>
      <trkpt lat="45.07105" lon="3.54992">
        <ele>558.7</ele>
      </trkpt>
      <trkpt lat="45.07092" lon="3.5501">
        <ele>557.1</ele>
      </trkpt>
      <trkpt lat="45.07078" lon="3.55028">
        <ele>556</ele>
      </trkpt>
      <trkpt lat="45.07064" lon="3.55043">
        <ele>553.8</ele>
      </trkpt>
      <trkpt lat="45.07051" lon="3.55055">
        <ele>551.5</ele>
      </trkpt>
      <trkpt lat="45.07041" lon="3.55064">
        <ele>549.1</ele>
      </trkpt>
      <trkpt lat="45.07034" lon="3.55071">
        <ele>547.5</ele>
      </trkpt>
      <trkpt lat="45.07025" lon="3.5508">
        <ele>545.4</ele>
      </trkpt>
      <trkpt lat="45.07018" lon="3.5509">
        <ele>544.4</ele>
      </trkpt>
      <trkpt lat="45.0701" lon="3.55101">
        <ele>543.6</ele>
      </trkpt>
      <trkpt lat="45.07002" lon="3.55109">
        <ele>542.6</ele>
      </trkpt>
      <trkpt lat="45.06996" lon="3.55116">
        <ele>542.4</ele>
      </trkpt>
      <trkpt lat="45.06989" lon="3.55121">
        <ele>542.2</ele>
      </trkpt>
      <trkpt lat="45.06981" lon="3.55127">
        <ele>541.9</ele>
      </trkpt>
      <trkpt lat="45.06975" lon="3.55132">
        <ele>541.5</ele>
      </trkpt>
      <trkpt lat="45.06971" lon="3.55135">
        <ele>540.9</ele>
      </trkpt>
      <trkpt lat="45.06966" lon="3.55134">
        <ele>539.9</ele>
      </trkpt>
      <trkpt lat="45.06961" lon="3.55133">
        <ele>538.7</ele>
      </trkpt>
      <trkpt lat="45.06955" lon="3.55129">
        <ele>537.1</ele>
      </trkpt>
      <trkpt lat="45.06951" lon="3.5512">
        <ele>535.4</ele>
      </trkpt>
      <trkpt lat="45.06945" lon="3.55107">
        <ele>533.3</ele>
      </trkpt>
      <trkpt lat="45.06945" lon="3.55106">
        <ele>533.1</ele>
      </trkpt>
      <trkpt lat="45.06935" lon="3.55088">
        <ele>530.9</ele>
      </trkpt>
      <trkpt lat="45.06924" lon="3.55071">
        <ele>530.9</ele>
      </trkpt>
      <trkpt lat="45.0692" lon="3.55064">
        <ele>531.7</ele>
      </trkpt>
      <trkpt lat="45.0692" lon="3.55058">
        <ele>532.4</ele>
      </trkpt>
      <trkpt lat="45.06922" lon="3.55046">
        <ele>533.8</ele>
      </trkpt>
      <trkpt lat="45.06928" lon="3.55028">
        <ele>535.4</ele>
      </trkpt>
      <trkpt lat="45.06933" lon="3.55007">
        <ele>536.7</ele>
      </trkpt>
      <trkpt lat="45.06936" lon="3.54987">
        <ele>536.1</ele>
      </trkpt>
      <trkpt lat="45.06938" lon="3.54964">
        <ele>534.4</ele>
      </trkpt>
      <trkpt lat="45.06938" lon="3.54945">
        <ele>533.3</ele>
      </trkpt>
      <trkpt lat="45.06936" lon="3.54929">
        <ele>532.6</ele>
      </trkpt>
      <trkpt lat="45.06936" lon="3.54927">
        <ele>532.5</ele>
      </trkpt>
      <trkpt lat="45.06935" lon="3.54927">
        <ele>532.7</ele>
      </trkpt>
      <trkpt lat="45.06931" lon="3.54911">
        <ele>527.9</ele>
        <time>2021-01-16T14:01:18Z</time>
      </trkpt>
      <trkpt lat="45.06924" lon="3.54891">
        <ele>525.02</ele>
        <time>2021-01-16T14:01:34Z</time>
      </trkpt>
      <trkpt lat="45.06922" lon="3.54879">
        <ele>525.02</ele>
        <time>2021-01-16T14:01:45Z</time>
      </trkpt>
      <trkpt lat="45.06911" lon="3.54872">
        <ele>528.38</ele>
        <time>2021-01-16T14:01:55Z</time>
      </trkpt>
      <trkpt lat="45.06898" lon="3.54869">
        <ele>527.9</ele>
        <time>2021-01-16T14:02:06Z</time>
      </trkpt>
      <trkpt lat="45.06897" lon="3.54869">
        <ele>527.9</ele>
        <time>2021-01-16T14:02:07Z</time>
      </trkpt>
      <trkpt lat="45.06892" lon="3.5487">
        <ele>527.42</ele>
        <time>2021-01-16T14:02:12Z</time>
      </trkpt>
      <trkpt lat="45.06886" lon="3.54871">
        <ele>527.42</ele>
        <time>2021-01-16T14:02:17Z</time>
      </trkpt>
      <trkpt lat="45.06883" lon="3.54871">
        <ele>527.42</ele>
        <time>2021-01-16T14:02:21Z</time>
      </trkpt>
      <trkpt lat="45.06883" lon="3.54867">
        <ele>527.42</ele>
        <time>2021-01-16T14:02:26Z</time>
      </trkpt>
      <trkpt lat="45.06886" lon="3.54866">
        <ele>527.42</ele>
        <time>2021-01-16T14:02:30Z</time>
      </trkpt>
      <trkpt lat="45.06887" lon="3.54864">
        <ele>526.94</ele>
        <time>2021-01-16T14:02:34Z</time>
      </trkpt>
      <trkpt lat="45.0689" lon="3.54861">
        <ele>525.98</ele>
        <time>2021-01-16T14:02:38Z</time>
      </trkpt>
      <trkpt lat="45.06892" lon="3.54858">
        <ele>524.54</ele>
        <time>2021-01-16T14:02:42Z</time>
      </trkpt>
      <trkpt lat="45.06901" lon="3.54851">
        <ele>520.69</ele>
        <time>2021-01-16T14:02:58Z</time>
      </trkpt>
      <trkpt lat="45.069" lon="3.54849">
        <ele>521.65</ele>
        <time>2021-01-16T14:03:13Z</time>
      </trkpt>
      <trkpt lat="45.069" lon="3.54845">
        <ele>521.17</ele>
        <time>2021-01-16T14:03:21Z</time>
      </trkpt>
      <trkpt lat="45.06909" lon="3.54835">
        <ele>519.73</ele>
        <time>2021-01-16T14:03:34Z</time>
      </trkpt>
      <trkpt lat="45.06923" lon="3.54836">
        <ele>518.29</ele>
        <time>2021-01-16T14:03:50Z</time>
      </trkpt>
      <trkpt lat="45.06932" lon="3.5484">
        <ele>520.69</ele>
        <time>2021-01-16T14:04:05Z</time>
      </trkpt>
    </trkseg>
  </trk>
</gpx>